<?xml version="1.0" encoding="UTF-8" standalone="no" ?>
<gpx xmlns="http://www.topografix.com/GPX/1/1" xmlns:xsi="http://www.w3.org/2001/XMLSchema-instance" xsi:schemaLocation="http://www.topografix.com/GPX/1/1 http://www.topografix.com/GPX/1/1/gpx.xsd" version="1.1" creator="VisuGPX - https://www.visugpx.com">
  <metadata>
    <name>Made_in_ROC_2</name>
  </metadata>
  <trk>
    <name><![CDATA[Made_in_ROC_2_1]]></name>
    <trkseg>
      <trkpt lat="43.39856" lon="6.67593">
        <ele>14.7</ele>
        <time>2020-10-07T10:00:00.000Z</time>
      </trkpt>
      <trkpt lat="43.39754" lon="6.67494">
        <ele>16</ele>
        <time>2020-10-07T10:00:41.701Z</time>
      </trkpt>
      <trkpt lat="43.397" lon="6.67454">
        <ele>14.7</ele>
        <time>2020-10-07T10:00:51.751Z</time>
      </trkpt>
      <trkpt lat="43.39672" lon="6.67445">
        <ele>14.4</ele>
        <time>2020-10-07T10:00:57.133Z</time>
      </trkpt>
      <trkpt lat="43.39631" lon="6.67454">
        <ele>15.1</ele>
        <time>2020-10-07T10:01:11.973Z</time>
      </trkpt>
      <trkpt lat="43.39552" lon="6.6748">
        <ele>19.3</ele>
        <time>2020-10-07T10:01:55.385Z</time>
      </trkpt>
      <trkpt lat="43.39537" lon="6.67465">
        <ele>20</ele>
        <time>2020-10-07T10:02:03.951Z</time>
      </trkpt>
      <trkpt lat="43.39525" lon="6.67463">
        <ele>20.4</ele>
        <time>2020-10-07T10:02:09.193Z</time>
      </trkpt>
      <trkpt lat="43.39493" lon="6.67453">
        <ele>25</ele>
        <time>2020-10-07T10:02:47.446Z</time>
      </trkpt>
      <trkpt lat="43.39473" lon="6.67464">
        <ele>25.5</ele>
        <time>2020-10-07T10:02:55.714Z</time>
      </trkpt>
      <trkpt lat="43.39456" lon="6.67498">
        <ele>25.9</ele>
        <time>2020-10-07T10:03:06.039Z</time>
      </trkpt>
      <trkpt lat="43.39422" lon="6.67509">
        <ele>26.1</ele>
        <time>2020-10-07T10:03:17.179Z</time>
      </trkpt>
      <trkpt lat="43.39399" lon="6.67527">
        <ele>27.6</ele>
        <time>2020-10-07T10:03:31.803Z</time>
      </trkpt>
      <trkpt lat="43.39365" lon="6.67526">
        <ele>29.2</ele>
        <time>2020-10-07T10:03:49.434Z</time>
      </trkpt>
      <trkpt lat="43.39332" lon="6.67525">
        <ele>34.7</ele>
        <time>2020-10-07T10:04:27.913Z</time>
      </trkpt>
      <trkpt lat="43.39322" lon="6.67504">
        <ele>36.1</ele>
        <time>2020-10-07T10:04:39.603Z</time>
      </trkpt>
      <trkpt lat="43.39341" lon="6.67472">
        <ele>37.4</ele>
        <time>2020-10-07T10:04:54.642Z</time>
      </trkpt>
      <trkpt lat="43.39365" lon="6.67425">
        <ele>38.8</ele>
        <time>2020-10-07T10:05:12.852Z</time>
      </trkpt>
      <trkpt lat="43.39364" lon="6.67373">
        <ele>42.1</ele>
        <time>2020-10-07T10:05:39.289Z</time>
      </trkpt>
      <trkpt lat="43.39362" lon="6.67356">
        <ele>42.7</ele>
        <time>2020-10-07T10:05:45.815Z</time>
      </trkpt>
      <trkpt lat="43.39353" lon="6.67334">
        <ele>44.6</ele>
        <time>2020-10-07T10:06:00.753Z</time>
      </trkpt>
      <trkpt lat="43.3934" lon="6.67307">
        <ele>43.6</ele>
        <time>2020-10-07T10:06:03.848Z</time>
      </trkpt>
      <trkpt lat="43.39319" lon="6.67279">
        <ele>49</ele>
        <time>2020-10-07T10:06:37.934Z</time>
      </trkpt>
      <trkpt lat="43.39272" lon="6.67273">
        <ele>52.8</ele>
        <time>2020-10-07T10:07:09.110Z</time>
      </trkpt>
      <trkpt lat="43.39228" lon="6.6726">
        <ele>58.7</ele>
        <time>2020-10-07T10:07:59.862Z</time>
      </trkpt>
      <trkpt lat="43.39205" lon="6.67277">
        <ele>60.2</ele>
        <time>2020-10-07T10:08:14.368Z</time>
      </trkpt>
      <trkpt lat="43.39183" lon="6.67276">
        <ele>60.8</ele>
        <time>2020-10-07T10:08:23.234Z</time>
      </trkpt>
      <trkpt lat="43.39159" lon="6.67275">
        <ele>61.4</ele>
        <time>2020-10-07T10:08:32.645Z</time>
      </trkpt>
      <trkpt lat="43.39133" lon="6.67283">
        <ele>60.9</ele>
        <time>2020-10-07T10:08:37.137Z</time>
      </trkpt>
      <trkpt lat="43.39108" lon="6.67288">
        <ele>60.4</ele>
        <time>2020-10-07T10:08:41.346Z</time>
      </trkpt>
      <trkpt lat="43.39082" lon="6.67268">
        <ele>60.3</ele>
        <time>2020-10-07T10:08:49.908Z</time>
      </trkpt>
      <trkpt lat="43.3906" lon="6.67253">
        <ele>60.6</ele>
        <time>2020-10-07T10:08:58.264Z</time>
      </trkpt>
      <trkpt lat="43.39042" lon="6.67244">
        <ele>61.8</ele>
        <time>2020-10-07T10:09:09.300Z</time>
      </trkpt>
      <trkpt lat="43.39014" lon="6.67229">
        <ele>62.8</ele>
        <time>2020-10-07T10:09:22.363Z</time>
      </trkpt>
      <trkpt lat="43.39028" lon="6.67179">
        <ele>62.6</ele>
        <time>2020-10-07T10:09:33.273Z</time>
      </trkpt>
      <trkpt lat="43.39022" lon="6.67156">
        <ele>61.8</ele>
        <time>2020-10-07T10:09:35.554Z</time>
      </trkpt>
      <trkpt lat="43.39007" lon="6.67141">
        <ele>61.9</ele>
        <time>2020-10-07T10:09:41.449Z</time>
      </trkpt>
      <trkpt lat="43.38983" lon="6.67135">
        <ele>68.4</ele>
        <time>2020-10-07T10:10:09.885Z</time>
      </trkpt>
      <trkpt lat="43.38962" lon="6.67118">
        <ele>69.5</ele>
        <time>2020-10-07T10:10:22.364Z</time>
      </trkpt>
      <trkpt lat="43.38931" lon="6.67094">
        <ele>72.7</ele>
        <time>2020-10-07T10:10:47.830Z</time>
      </trkpt>
      <trkpt lat="43.38899" lon="6.67078">
        <ele>80</ele>
        <time>2020-10-07T10:11:27.520Z</time>
      </trkpt>
      <trkpt lat="43.38863" lon="6.67078">
        <ele>83.8</ele>
        <time>2020-10-07T10:11:57.434Z</time>
      </trkpt>
      <trkpt lat="43.38798" lon="6.6713">
        <ele>89.3</ele>
        <time>2020-10-07T10:12:44.272Z</time>
      </trkpt>
      <trkpt lat="43.3874" lon="6.67204">
        <ele>94.8</ele>
        <time>2020-10-07T10:13:32.207Z</time>
      </trkpt>
      <trkpt lat="43.38711" lon="6.67292">
        <ele>91.5</ele>
        <time>2020-10-07T10:13:41.071Z</time>
      </trkpt>
      <trkpt lat="43.38691" lon="6.67322">
        <ele>92.4</ele>
        <time>2020-10-07T10:13:53.466Z</time>
      </trkpt>
      <trkpt lat="43.3865" lon="6.67331">
        <ele>95</ele>
        <time>2020-10-07T10:14:17.386Z</time>
      </trkpt>
      <trkpt lat="43.38631" lon="6.67303">
        <ele>95.2</ele>
        <time>2020-10-07T10:14:26.393Z</time>
      </trkpt>
      <trkpt lat="43.38617" lon="6.67232">
        <ele>100.8</ele>
        <time>2020-10-07T10:15:10.449Z</time>
      </trkpt>
      <trkpt lat="43.38598" lon="6.67175">
        <ele>102.7</ele>
        <time>2020-10-07T10:15:32.732Z</time>
      </trkpt>
      <trkpt lat="43.38565" lon="6.67128">
        <ele>105.8</ele>
        <time>2020-10-07T10:16:00.622Z</time>
      </trkpt>
      <trkpt lat="43.38523" lon="6.67074">
        <ele>106</ele>
        <time>2020-10-07T10:16:18.567Z</time>
      </trkpt>
      <trkpt lat="43.38497" lon="6.67051">
        <ele>106.1</ele>
        <time>2020-10-07T10:16:28.194Z</time>
      </trkpt>
      <trkpt lat="43.38465" lon="6.67037">
        <ele>106.5</ele>
        <time>2020-10-07T10:16:39.585Z</time>
      </trkpt>
      <trkpt lat="43.3841" lon="6.67033">
        <ele>109.7</ele>
        <time>2020-10-07T10:17:10.323Z</time>
      </trkpt>
      <trkpt lat="43.38361" lon="6.67025">
        <ele>110.5</ele>
        <time>2020-10-07T10:17:27.837Z</time>
      </trkpt>
      <trkpt lat="43.38315" lon="6.67052">
        <ele>115</ele>
        <time>2020-10-07T10:18:03.647Z</time>
      </trkpt>
      <trkpt lat="43.38267" lon="6.67067">
        <ele>116.3</ele>
        <time>2020-10-07T10:18:23.270Z</time>
      </trkpt>
      <trkpt lat="43.3825" lon="6.67064">
        <ele>116.5</ele>
        <time>2020-10-07T10:18:29.070Z</time>
      </trkpt>
      <trkpt lat="43.38232" lon="6.67048">
        <ele>119.1</ele>
        <time>2020-10-07T10:18:50.332Z</time>
      </trkpt>
      <trkpt lat="43.382" lon="6.6704">
        <ele>119.7</ele>
        <time>2020-10-07T10:19:02.160Z</time>
      </trkpt>
      <trkpt lat="43.38168" lon="6.67032">
        <ele>120.5</ele>
        <time>2020-10-07T10:19:14.849Z</time>
      </trkpt>
      <trkpt lat="43.38139" lon="6.67031">
        <ele>120.6</ele>
        <time>2020-10-07T10:19:23.902Z</time>
      </trkpt>
      <trkpt lat="43.38092" lon="6.67068">
        <ele>120.4</ele>
        <time>2020-10-07T10:19:39.391Z</time>
      </trkpt>
      <trkpt lat="43.38061" lon="6.6709">
        <ele>119.1</ele>
        <time>2020-10-07T10:19:44.211Z</time>
      </trkpt>
      <trkpt lat="43.38029" lon="6.67099">
        <ele>119.8</ele>
        <time>2020-10-07T10:19:56.494Z</time>
      </trkpt>
      <trkpt lat="43.38023" lon="6.67083">
        <ele>123.1</ele>
        <time>2020-10-07T10:20:11.749Z</time>
      </trkpt>
      <trkpt lat="43.37994" lon="6.67109">
        <ele>128.6</ele>
        <time>2020-10-07T10:20:52.099Z</time>
      </trkpt>
      <trkpt lat="43.37934" lon="6.67105">
        <ele>136.3</ele>
        <time>2020-10-07T10:21:57.186Z</time>
      </trkpt>
      <trkpt lat="43.37871" lon="6.67107">
        <ele>151.7</ele>
        <time>2020-10-07T10:23:10.648Z</time>
      </trkpt>
      <trkpt lat="43.37797" lon="6.67066">
        <ele>168.6</ele>
        <time>2020-10-07T10:24:43.645Z</time>
      </trkpt>
      <trkpt lat="43.37736" lon="6.67053">
        <ele>171.5</ele>
        <time>2020-10-07T10:25:15.634Z</time>
      </trkpt>
      <trkpt lat="43.37667" lon="6.67029">
        <ele>170.9</ele>
        <time>2020-10-07T10:25:29.318Z</time>
      </trkpt>
      <trkpt lat="43.37638" lon="6.67014">
        <ele>167.7</ele>
        <time>2020-10-07T10:25:32.950Z</time>
      </trkpt>
      <trkpt lat="43.37585" lon="6.67012">
        <ele>166.5</ele>
        <time>2020-10-07T10:25:41.498Z</time>
      </trkpt>
      <trkpt lat="43.37521" lon="6.66975">
        <ele>167.6</ele>
        <time>2020-10-07T10:26:06.041Z</time>
      </trkpt>
      <trkpt lat="43.3749" lon="6.66944">
        <ele>176.2</ele>
        <time>2020-10-07T10:26:50.717Z</time>
      </trkpt>
      <trkpt lat="43.37459" lon="6.66916">
        <ele>183.4</ele>
        <time>2020-10-07T10:27:33.948Z</time>
      </trkpt>
      <trkpt lat="43.37433" lon="6.66888">
        <ele>185.9</ele>
        <time>2020-10-07T10:27:54.933Z</time>
      </trkpt>
      <trkpt lat="43.37403" lon="6.6688">
        <ele>189.4</ele>
        <time>2020-10-07T10:28:22.913Z</time>
      </trkpt>
      <trkpt lat="43.37378" lon="6.66878">
        <ele>188.6</ele>
        <time>2020-10-07T10:28:26.563Z</time>
      </trkpt>
      <trkpt lat="43.37337" lon="6.66857">
        <ele>187.9</ele>
        <time>2020-10-07T10:28:34.192Z</time>
      </trkpt>
      <trkpt lat="43.37289" lon="6.66872">
        <ele>178.9</ele>
        <time>2020-10-07T10:28:39.963Z</time>
      </trkpt>
      <trkpt lat="43.37228" lon="6.66876">
        <ele>173.2</ele>
        <time>2020-10-07T10:28:47.122Z</time>
      </trkpt>
      <trkpt lat="43.37196" lon="6.66888">
        <ele>173.8</ele>
        <time>2020-10-07T10:28:59.138Z</time>
      </trkpt>
      <trkpt lat="43.37154" lon="6.669">
        <ele>177</ele>
        <time>2020-10-07T10:29:26.163Z</time>
      </trkpt>
      <trkpt lat="43.3711" lon="6.66868">
        <ele>178.2</ele>
        <time>2020-10-07T10:29:45.468Z</time>
      </trkpt>
      <trkpt lat="43.37027" lon="6.6684">
        <ele>183.2</ele>
        <time>2020-10-07T10:30:33.297Z</time>
      </trkpt>
      <trkpt lat="43.36911" lon="6.66761">
        <ele>173.4</ele>
        <time>2020-10-07T10:30:48.472Z</time>
      </trkpt>
      <trkpt lat="43.36901" lon="6.66829">
        <ele>169.2</ele>
        <time>2020-10-07T10:30:54.385Z</time>
      </trkpt>
      <trkpt lat="43.3686" lon="6.67027">
        <ele>115.8</ele>
        <time>2020-10-07T10:31:11.931Z</time>
      </trkpt>
      <trkpt lat="43.36834" lon="6.67131">
        <ele>100.1</ele>
        <time>2020-10-07T10:31:21.304Z</time>
      </trkpt>
      <trkpt lat="43.36878" lon="6.67167">
        <ele>96.6</ele>
        <time>2020-10-07T10:31:27.307Z</time>
      </trkpt>
      <trkpt lat="43.36889" lon="6.67185">
        <ele>96.7</ele>
        <time>2020-10-07T10:31:32.765Z</time>
      </trkpt>
      <trkpt lat="43.36836" lon="6.6721">
        <ele>97</ele>
        <time>2020-10-07T10:31:50.573Z</time>
      </trkpt>
      <trkpt lat="43.36753" lon="6.67282">
        <ele>103</ele>
        <time>2020-10-07T10:32:46.514Z</time>
      </trkpt>
      <trkpt lat="43.36661" lon="6.67301">
        <ele>115.9</ele>
        <time>2020-10-07T10:34:34.965Z</time>
      </trkpt>
      <trkpt lat="43.36768" lon="6.67632">
        <ele>130.1</ele>
        <time>2020-10-07T10:36:57.804Z</time>
      </trkpt>
      <trkpt lat="43.36747" lon="6.67709">
        <ele>136.7</ele>
        <time>2020-10-07T10:37:50.088Z</time>
      </trkpt>
      <trkpt lat="43.36749" lon="6.67726">
        <ele>138.2</ele>
        <time>2020-10-07T10:38:02.282Z</time>
      </trkpt>
      <trkpt lat="43.36752" lon="6.67742">
        <ele>139.8</ele>
        <time>2020-10-07T10:38:16.238Z</time>
      </trkpt>
      <trkpt lat="43.36755" lon="6.67755">
        <ele>142.7</ele>
        <time>2020-10-07T10:38:27.797Z</time>
      </trkpt>
      <trkpt lat="43.36757" lon="6.67766">
        <ele>146.4</ele>
        <time>2020-10-07T10:38:37.406Z</time>
      </trkpt>
      <trkpt lat="43.36759" lon="6.67777">
        <ele>149</ele>
        <time>2020-10-07T10:38:47.015Z</time>
      </trkpt>
      <trkpt lat="43.3676" lon="6.67788">
        <ele>150.6</ele>
        <time>2020-10-07T10:38:56.410Z</time>
      </trkpt>
      <trkpt lat="43.3676" lon="6.67798">
        <ele>151.7</ele>
        <time>2020-10-07T10:39:04.884Z</time>
      </trkpt>
      <trkpt lat="43.36762" lon="6.67808">
        <ele>152.4</ele>
        <time>2020-10-07T10:39:10.424Z</time>
      </trkpt>
      <trkpt lat="43.36763" lon="6.67818">
        <ele>152.8</ele>
        <time>2020-10-07T10:39:14.420Z</time>
      </trkpt>
      <trkpt lat="43.36764" lon="6.67826">
        <ele>152.9</ele>
        <time>2020-10-07T10:39:16.531Z</time>
      </trkpt>
      <trkpt lat="43.36766" lon="6.67834">
        <ele>156.2</ele>
        <time>2020-10-07T10:39:23.700Z</time>
      </trkpt>
      <trkpt lat="43.36766" lon="6.67843">
        <ele>156.7</ele>
        <time>2020-10-07T10:39:27.882Z</time>
      </trkpt>
      <trkpt lat="43.36765" lon="6.67851">
        <ele>157.3</ele>
        <time>2020-10-07T10:39:32.597Z</time>
      </trkpt>
      <trkpt lat="43.36763" lon="6.67859">
        <ele>157.9</ele>
        <time>2020-10-07T10:39:37.318Z</time>
      </trkpt>
      <trkpt lat="43.36763" lon="6.67868">
        <ele>158.5</ele>
        <time>2020-10-07T10:39:42.076Z</time>
      </trkpt>
      <trkpt lat="43.36762" lon="6.67877">
        <ele>158.9</ele>
        <time>2020-10-07T10:39:45.830Z</time>
      </trkpt>
      <trkpt lat="43.36763" lon="6.67886">
        <ele>159.1</ele>
        <time>2020-10-07T10:39:48.596Z</time>
      </trkpt>
      <trkpt lat="43.36764" lon="6.67895">
        <ele>159.1</ele>
        <time>2020-10-07T10:39:50.596Z</time>
      </trkpt>
      <trkpt lat="43.36765" lon="6.67902">
        <ele>159.1</ele>
        <time>2020-10-07T10:39:52.164Z</time>
      </trkpt>
      <trkpt lat="43.36767" lon="6.67911">
        <ele>159</ele>
        <time>2020-10-07T10:39:53.377Z</time>
      </trkpt>
      <trkpt lat="43.36768" lon="6.67919">
        <ele>158.5</ele>
        <time>2020-10-07T10:39:54.069Z</time>
      </trkpt>
      <trkpt lat="43.36768" lon="6.67931">
        <ele>158.6</ele>
        <time>2020-10-07T10:39:57.015Z</time>
      </trkpt>
      <trkpt lat="43.36766" lon="6.67943">
        <ele>158.4</ele>
        <time>2020-10-07T10:39:58.463Z</time>
      </trkpt>
      <trkpt lat="43.36762" lon="6.67955">
        <ele>158</ele>
        <time>2020-10-07T10:39:59.734Z</time>
      </trkpt>
      <trkpt lat="43.36757" lon="6.6797">
        <ele>157.2</ele>
        <time>2020-10-07T10:40:01.022Z</time>
      </trkpt>
      <trkpt lat="43.36751" lon="6.67986">
        <ele>155.5</ele>
        <time>2020-10-07T10:40:02.557Z</time>
      </trkpt>
      <trkpt lat="43.36739" lon="6.67996">
        <ele>158.2</ele>
        <time>2020-10-07T10:40:18.912Z</time>
      </trkpt>
      <trkpt lat="43.36725" lon="6.67998">
        <ele>162.2</ele>
        <time>2020-10-07T10:40:35.321Z</time>
      </trkpt>
      <trkpt lat="43.3671" lon="6.68001">
        <ele>162</ele>
        <time>2020-10-07T10:40:38.058Z</time>
      </trkpt>
      <trkpt lat="43.36699" lon="6.68016">
        <ele>163.7</ele>
        <time>2020-10-07T10:40:51.511Z</time>
      </trkpt>
      <trkpt lat="43.36696" lon="6.68036">
        <ele>163.1</ele>
        <time>2020-10-07T10:40:53.501Z</time>
      </trkpt>
      <trkpt lat="43.36698" lon="6.68058">
        <ele>162.3</ele>
        <time>2020-10-07T10:40:55.489Z</time>
      </trkpt>
      <trkpt lat="43.36705" lon="6.68077">
        <ele>161</ele>
        <time>2020-10-07T10:40:57.304Z</time>
      </trkpt>
      <trkpt lat="43.36713" lon="6.68095">
        <ele>155.9</ele>
        <time>2020-10-07T10:40:59.102Z</time>
      </trkpt>
      <trkpt lat="43.36719" lon="6.68113">
        <ele>154.8</ele>
        <time>2020-10-07T10:41:00.790Z</time>
      </trkpt>
      <trkpt lat="43.36721" lon="6.68134">
        <ele>154</ele>
        <time>2020-10-07T10:41:02.651Z</time>
      </trkpt>
      <trkpt lat="43.36716" lon="6.68155">
        <ele>153.8</ele>
        <time>2020-10-07T10:41:05.580Z</time>
      </trkpt>
      <trkpt lat="43.36707" lon="6.68179">
        <ele>149.4</ele>
        <time>2020-10-07T10:41:07.882Z</time>
      </trkpt>
      <trkpt lat="43.36692" lon="6.682">
        <ele>149.9</ele>
        <time>2020-10-07T10:41:16.111Z</time>
      </trkpt>
      <trkpt lat="43.36675" lon="6.68218">
        <ele>149.4</ele>
        <time>2020-10-07T10:41:19.544Z</time>
      </trkpt>
      <trkpt lat="43.36656" lon="6.68235">
        <ele>152.2</ele>
        <time>2020-10-07T10:41:42.659Z</time>
      </trkpt>
      <trkpt lat="43.36634" lon="6.6824">
        <ele>152.6</ele>
        <time>2020-10-07T10:41:50.723Z</time>
      </trkpt>
      <trkpt lat="43.36612" lon="6.68227">
        <ele>152.8</ele>
        <time>2020-10-07T10:41:58.559Z</time>
      </trkpt>
      <trkpt lat="43.3659" lon="6.68214">
        <ele>153.8</ele>
        <time>2020-10-07T10:42:10.279Z</time>
      </trkpt>
      <trkpt lat="43.36568" lon="6.68201">
        <ele>151.9</ele>
        <time>2020-10-07T10:42:13.087Z</time>
      </trkpt>
      <trkpt lat="43.3655" lon="6.6818">
        <ele>152.7</ele>
        <time>2020-10-07T10:42:23.432Z</time>
      </trkpt>
      <trkpt lat="43.36537" lon="6.68153">
        <ele>163.1</ele>
        <time>2020-10-07T10:42:50.877Z</time>
      </trkpt>
      <trkpt lat="43.36518" lon="6.68137">
        <ele>163</ele>
        <time>2020-10-07T10:42:57.177Z</time>
      </trkpt>
      <trkpt lat="43.36494" lon="6.68131">
        <ele>164.2</ele>
        <time>2020-10-07T10:43:10.000Z</time>
      </trkpt>
      <trkpt lat="43.3647" lon="6.6812">
        <ele>167.4</ele>
        <time>2020-10-07T10:43:36.803Z</time>
      </trkpt>
      <trkpt lat="43.36448" lon="6.68121">
        <ele>168.9</ele>
        <time>2020-10-07T10:43:50.005Z</time>
      </trkpt>
      <trkpt lat="43.3644" lon="6.68149">
        <ele>168</ele>
        <time>2020-10-07T10:43:52.917Z</time>
      </trkpt>
      <trkpt lat="43.36441" lon="6.68182">
        <ele>161.4</ele>
        <time>2020-10-07T10:43:55.733Z</time>
      </trkpt>
      <trkpt lat="43.36445" lon="6.68216">
        <ele>159</ele>
        <time>2020-10-07T10:43:58.668Z</time>
      </trkpt>
      <trkpt lat="43.36449" lon="6.68252">
        <ele>153.2</ele>
        <time>2020-10-07T10:44:01.772Z</time>
      </trkpt>
      <trkpt lat="43.36447" lon="6.68289">
        <ele>150.6</ele>
        <time>2020-10-07T10:44:04.935Z</time>
      </trkpt>
      <trkpt lat="43.36432" lon="6.68321">
        <ele>151.2</ele>
        <time>2020-10-07T10:44:15.373Z</time>
      </trkpt>
      <trkpt lat="43.36408" lon="6.68341">
        <ele>153.4</ele>
        <time>2020-10-07T10:44:33.593Z</time>
      </trkpt>
      <trkpt lat="43.36381" lon="6.68352">
        <ele>153.6</ele>
        <time>2020-10-07T10:44:42.696Z</time>
      </trkpt>
      <trkpt lat="43.36356" lon="6.68373">
        <ele>153.7</ele>
        <time>2020-10-07T10:44:51.835Z</time>
      </trkpt>
      <trkpt lat="43.36341" lon="6.68411">
        <ele>151.3</ele>
        <time>2020-10-07T10:44:55.520Z</time>
      </trkpt>
      <trkpt lat="43.36339" lon="6.68445">
        <ele>150.7</ele>
        <time>2020-10-07T10:44:59.448Z</time>
      </trkpt>
      <trkpt lat="43.36347" lon="6.68458">
        <ele>151</ele>
        <time>2020-10-07T10:45:04.258Z</time>
      </trkpt>
      <trkpt lat="43.36358" lon="6.68469">
        <ele>151.2</ele>
        <time>2020-10-07T10:45:09.008Z</time>
      </trkpt>
      <trkpt lat="43.36369" lon="6.6848">
        <ele>151.2</ele>
        <time>2020-10-07T10:45:13.118Z</time>
      </trkpt>
      <trkpt lat="43.36379" lon="6.68496">
        <ele>151.3</ele>
        <time>2020-10-07T10:45:18.049Z</time>
      </trkpt>
      <trkpt lat="43.36388" lon="6.68511">
        <ele>158.9</ele>
        <time>2020-10-07T10:45:34.532Z</time>
      </trkpt>
      <trkpt lat="43.36399" lon="6.68525">
        <ele>159.6</ele>
        <time>2020-10-07T10:45:42.285Z</time>
      </trkpt>
      <trkpt lat="43.36412" lon="6.68537">
        <ele>161.2</ele>
        <time>2020-10-07T10:45:54.859Z</time>
      </trkpt>
      <trkpt lat="43.36425" lon="6.68543">
        <ele>154.4</ele>
        <time>2020-10-07T10:45:56.466Z</time>
      </trkpt>
      <trkpt lat="43.36435" lon="6.68551">
        <ele>154.8</ele>
        <time>2020-10-07T10:46:01.583Z</time>
      </trkpt>
      <trkpt lat="43.36444" lon="6.68559">
        <ele>154.7</ele>
        <time>2020-10-07T10:46:03.619Z</time>
      </trkpt>
      <trkpt lat="43.36453" lon="6.6857">
        <ele>154</ele>
        <time>2020-10-07T10:46:05.001Z</time>
      </trkpt>
      <trkpt lat="43.36462" lon="6.68585">
        <ele>161.6</ele>
        <time>2020-10-07T10:46:21.484Z</time>
      </trkpt>
      <trkpt lat="43.36471" lon="6.68605">
        <ele>160.8</ele>
        <time>2020-10-07T10:46:23.646Z</time>
      </trkpt>
      <trkpt lat="43.36483" lon="6.6863">
        <ele>161.5</ele>
        <time>2020-10-07T10:46:32.975Z</time>
      </trkpt>
      <trkpt lat="43.36497" lon="6.68659">
        <ele>159.7</ele>
        <time>2020-10-07T10:46:35.942Z</time>
      </trkpt>
      <trkpt lat="43.36511" lon="6.68687">
        <ele>149.7</ele>
        <time>2020-10-07T10:46:38.839Z</time>
      </trkpt>
      <trkpt lat="43.3652" lon="6.68718">
        <ele>147.9</ele>
        <time>2020-10-07T10:46:41.684Z</time>
      </trkpt>
      <trkpt lat="43.3652" lon="6.68752">
        <ele>148.7</ele>
        <time>2020-10-07T10:46:52.302Z</time>
      </trkpt>
      <trkpt lat="43.36513" lon="6.68783">
        <ele>144.5</ele>
        <time>2020-10-07T10:46:55.069Z</time>
      </trkpt>
      <trkpt lat="43.365" lon="6.68803">
        <ele>142.8</ele>
        <time>2020-10-07T10:46:57.355Z</time>
      </trkpt>
      <trkpt lat="43.36484" lon="6.68804">
        <ele>154.3</ele>
        <time>2020-10-07T10:47:16.027Z</time>
      </trkpt>
      <trkpt lat="43.3647" lon="6.68807">
        <ele>155.2</ele>
        <time>2020-10-07T10:47:24.242Z</time>
      </trkpt>
      <trkpt lat="43.36454" lon="6.68828">
        <ele>154.6</ele>
        <time>2020-10-07T10:47:27.634Z</time>
      </trkpt>
      <trkpt lat="43.36431" lon="6.68834">
        <ele>145.2</ele>
        <time>2020-10-07T10:47:30.378Z</time>
      </trkpt>
      <trkpt lat="43.36412" lon="6.68833">
        <ele>154.8</ele>
        <time>2020-10-07T10:47:52.544Z</time>
      </trkpt>
      <trkpt lat="43.36398" lon="6.68835">
        <ele>152.3</ele>
        <time>2020-10-07T10:47:54.194Z</time>
      </trkpt>
      <trkpt lat="43.36387" lon="6.6884">
        <ele>153.1</ele>
        <time>2020-10-07T10:48:01.190Z</time>
      </trkpt>
      <trkpt lat="43.36378" lon="6.68846">
        <ele>154</ele>
        <time>2020-10-07T10:48:08.352Z</time>
      </trkpt>
      <trkpt lat="43.3637" lon="6.6886">
        <ele>153.9</ele>
        <time>2020-10-07T10:48:10.865Z</time>
      </trkpt>
      <trkpt lat="43.36363" lon="6.6888">
        <ele>152.6</ele>
        <time>2020-10-07T10:48:12.757Z</time>
      </trkpt>
      <trkpt lat="43.36356" lon="6.68898">
        <ele>152.3</ele>
        <time>2020-10-07T10:48:15.217Z</time>
      </trkpt>
      <trkpt lat="43.36343" lon="6.68918">
        <ele>148.9</ele>
        <time>2020-10-07T10:48:17.504Z</time>
      </trkpt>
      <trkpt lat="43.36331" lon="6.68935">
        <ele>155.1</ele>
        <time>2020-10-07T10:48:37.585Z</time>
      </trkpt>
      <trkpt lat="43.36316" lon="6.68946">
        <ele>154.8</ele>
        <time>2020-10-07T10:48:40.490Z</time>
      </trkpt>
      <trkpt lat="43.363" lon="6.6896">
        <ele>155.1</ele>
        <time>2020-10-07T10:48:47.193Z</time>
      </trkpt>
      <trkpt lat="43.36297" lon="6.68977">
        <ele>154.6</ele>
        <time>2020-10-07T10:48:48.916Z</time>
      </trkpt>
      <trkpt lat="43.36292" lon="6.68989">
        <ele>155.1</ele>
        <time>2020-10-07T10:48:54.220Z</time>
      </trkpt>
      <trkpt lat="43.36288" lon="6.69002">
        <ele>155.4</ele>
        <time>2020-10-07T10:48:58.456Z</time>
      </trkpt>
      <trkpt lat="43.36286" lon="6.69013">
        <ele>155.9</ele>
        <time>2020-10-07T10:49:03.140Z</time>
      </trkpt>
      <trkpt lat="43.36282" lon="6.69022">
        <ele>156.7</ele>
        <time>2020-10-07T10:49:09.432Z</time>
      </trkpt>
      <trkpt lat="43.3628" lon="6.69031">
        <ele>157</ele>
        <time>2020-10-07T10:49:12.888Z</time>
      </trkpt>
      <trkpt lat="43.36278" lon="6.6904">
        <ele>157.5</ele>
        <time>2020-10-07T10:49:17.148Z</time>
      </trkpt>
      <trkpt lat="43.36274" lon="6.69048">
        <ele>158.6</ele>
        <time>2020-10-07T10:49:25.376Z</time>
      </trkpt>
      <trkpt lat="43.36273" lon="6.6906">
        <ele>159.9</ele>
        <time>2020-10-07T10:49:35.613Z</time>
      </trkpt>
      <trkpt lat="43.36273" lon="6.69079">
        <ele>162</ele>
        <time>2020-10-07T10:49:51.716Z</time>
      </trkpt>
      <trkpt lat="43.3627" lon="6.69102">
        <ele>164.4</ele>
        <time>2020-10-07T10:50:11.520Z</time>
      </trkpt>
      <trkpt lat="43.36273" lon="6.69128">
        <ele>163.3</ele>
        <time>2020-10-07T10:50:13.730Z</time>
      </trkpt>
      <trkpt lat="43.36281" lon="6.69148">
        <ele>163</ele>
        <time>2020-10-07T10:50:16.552Z</time>
      </trkpt>
      <trkpt lat="43.36282" lon="6.69177">
        <ele>169.1</ele>
        <time>2020-10-07T10:50:41.157Z</time>
      </trkpt>
      <trkpt lat="43.36288" lon="6.69215">
        <ele>169.7</ele>
        <time>2020-10-07T10:50:51.764Z</time>
      </trkpt>
      <trkpt lat="43.36313" lon="6.69224">
        <ele>165.5</ele>
        <time>2020-10-07T10:50:54.793Z</time>
      </trkpt>
      <trkpt lat="43.36346" lon="6.69247">
        <ele>151</ele>
        <time>2020-10-07T10:50:59.131Z</time>
      </trkpt>
      <trkpt lat="43.36379" lon="6.69278">
        <ele>153.8</ele>
        <time>2020-10-07T10:51:23.446Z</time>
      </trkpt>
      <trkpt lat="43.36419" lon="6.69294">
        <ele>135.3</ele>
        <time>2020-10-07T10:51:28.330Z</time>
      </trkpt>
      <trkpt lat="43.36449" lon="6.69325">
        <ele>134.8</ele>
        <time>2020-10-07T10:51:35.095Z</time>
      </trkpt>
      <trkpt lat="43.36458" lon="6.69366">
        <ele>138.1</ele>
        <time>2020-10-07T10:52:01.083Z</time>
      </trkpt>
      <trkpt lat="43.36457" lon="6.69403">
        <ele>139.3</ele>
        <time>2020-10-07T10:52:14.820Z</time>
      </trkpt>
      <trkpt lat="43.36453" lon="6.69445">
        <ele>145.2</ele>
        <time>2020-10-07T10:52:50.719Z</time>
      </trkpt>
      <trkpt lat="43.36477" lon="6.69483">
        <ele>140.9</ele>
        <time>2020-10-07T10:52:55.009Z</time>
      </trkpt>
      <trkpt lat="43.36505" lon="6.69518">
        <ele>128.2</ele>
        <time>2020-10-07T10:52:59.445Z</time>
      </trkpt>
      <trkpt lat="43.36522" lon="6.69566">
        <ele>128.8</ele>
        <time>2020-10-07T10:53:13.111Z</time>
      </trkpt>
      <trkpt lat="43.3654" lon="6.69609">
        <ele>126.3</ele>
        <time>2020-10-07T10:53:17.341Z</time>
      </trkpt>
      <trkpt lat="43.36553" lon="6.69658">
        <ele>123.2</ele>
        <time>2020-10-07T10:53:21.786Z</time>
      </trkpt>
      <trkpt lat="43.36571" lon="6.69703">
        <ele>114.8</ele>
        <time>2020-10-07T10:53:26.164Z</time>
      </trkpt>
      <trkpt lat="43.36572" lon="6.69728">
        <ele>112.4</ele>
        <time>2020-10-07T10:53:28.298Z</time>
      </trkpt>
      <trkpt lat="43.36563" lon="6.69718">
        <ele>113.8</ele>
        <time>2020-10-07T10:53:39.732Z</time>
      </trkpt>
      <trkpt lat="43.36552" lon="6.69704">
        <ele>115.3</ele>
        <time>2020-10-07T10:53:51.521Z</time>
      </trkpt>
      <trkpt lat="43.36539" lon="6.6969">
        <ele>116.9</ele>
        <time>2020-10-07T10:54:04.118Z</time>
      </trkpt>
      <trkpt lat="43.36526" lon="6.69678">
        <ele>119.3</ele>
        <time>2020-10-07T10:54:22.368Z</time>
      </trkpt>
      <trkpt lat="43.36513" lon="6.69671">
        <ele>122.5</ele>
        <time>2020-10-07T10:54:38.643Z</time>
      </trkpt>
      <trkpt lat="43.36499" lon="6.69669">
        <ele>127.7</ele>
        <time>2020-10-07T10:54:55.051Z</time>
      </trkpt>
      <trkpt lat="43.36489" lon="6.69682">
        <ele>126.4</ele>
        <time>2020-10-07T10:54:56.664Z</time>
      </trkpt>
      <trkpt lat="43.3648" lon="6.69698">
        <ele>124.8</ele>
        <time>2020-10-07T10:54:58.388Z</time>
      </trkpt>
      <trkpt lat="43.36469" lon="6.69712">
        <ele>123.6</ele>
        <time>2020-10-07T10:55:00.145Z</time>
      </trkpt>
      <trkpt lat="43.36456" lon="6.69722">
        <ele>123.3</ele>
        <time>2020-10-07T10:55:02.617Z</time>
      </trkpt>
      <trkpt lat="43.36445" lon="6.69726">
        <ele>123.4</ele>
        <time>2020-10-07T10:55:06.356Z</time>
      </trkpt>
      <trkpt lat="43.36435" lon="6.69725">
        <ele>123.8</ele>
        <time>2020-10-07T10:55:11.132Z</time>
      </trkpt>
      <trkpt lat="43.36426" lon="6.69722">
        <ele>124.4</ele>
        <time>2020-10-07T10:55:16.551Z</time>
      </trkpt>
      <trkpt lat="43.36418" lon="6.69719">
        <ele>125.2</ele>
        <time>2020-10-07T10:55:22.852Z</time>
      </trkpt>
      <trkpt lat="43.36411" lon="6.69716">
        <ele>131.5</ele>
        <time>2020-10-07T10:55:31.399Z</time>
      </trkpt>
      <trkpt lat="43.36405" lon="6.69712">
        <ele>132.7</ele>
        <time>2020-10-07T10:55:39.172Z</time>
      </trkpt>
      <trkpt lat="43.36399" lon="6.69707">
        <ele>133.9</ele>
        <time>2020-10-07T10:55:47.350Z</time>
      </trkpt>
      <trkpt lat="43.36393" lon="6.69702">
        <ele>135</ele>
        <time>2020-10-07T10:55:55.528Z</time>
      </trkpt>
      <trkpt lat="43.36387" lon="6.69698">
        <ele>135.7</ele>
        <time>2020-10-07T10:56:01.036Z</time>
      </trkpt>
      <trkpt lat="43.36382" lon="6.69694">
        <ele>136.4</ele>
        <time>2020-10-07T10:56:06.753Z</time>
      </trkpt>
      <trkpt lat="43.36377" lon="6.69689">
        <ele>137.2</ele>
        <time>2020-10-07T10:56:13.563Z</time>
      </trkpt>
      <trkpt lat="43.36372" lon="6.69684">
        <ele>138</ele>
        <time>2020-10-07T10:56:20.374Z</time>
      </trkpt>
      <trkpt lat="43.36372" lon="6.69684">
        <ele>138</ele>
        <time>2020-10-07T10:56:20.374Z</time>
      </trkpt>
      <trkpt lat="43.36362" lon="6.69679">
        <ele>139.5</ele>
        <time>2020-10-07T10:56:32.778Z</time>
      </trkpt>
      <trkpt lat="43.36357" lon="6.69677">
        <ele>140.4</ele>
        <time>2020-10-07T10:56:38.848Z</time>
      </trkpt>
      <trkpt lat="43.36352" lon="6.69676">
        <ele>141.4</ele>
        <time>2020-10-07T10:56:44.738Z</time>
      </trkpt>
      <trkpt lat="43.36347" lon="6.69675">
        <ele>142.7</ele>
        <time>2020-10-07T10:56:50.628Z</time>
      </trkpt>
      <trkpt lat="43.36342" lon="6.69674">
        <ele>144.3</ele>
        <time>2020-10-07T10:56:56.518Z</time>
      </trkpt>
      <trkpt lat="43.36337" lon="6.69675">
        <ele>145.2</ele>
        <time>2020-10-07T10:57:02.408Z</time>
      </trkpt>
      <trkpt lat="43.36332" lon="6.69675">
        <ele>146.2</ele>
        <time>2020-10-07T10:57:08.237Z</time>
      </trkpt>
      <trkpt lat="43.36328" lon="6.69673">
        <ele>146.3</ele>
        <time>2020-10-07T10:57:09.876Z</time>
      </trkpt>
      <trkpt lat="43.36323" lon="6.69673">
        <ele>145.1</ele>
        <time>2020-10-07T10:57:10.462Z</time>
      </trkpt>
      <trkpt lat="43.36318" lon="6.69674">
        <ele>143.9</ele>
        <time>2020-10-07T10:57:11.054Z</time>
      </trkpt>
      <trkpt lat="43.36314" lon="6.69672">
        <ele>143.4</ele>
        <time>2020-10-07T10:57:11.553Z</time>
      </trkpt>
      <trkpt lat="43.36309" lon="6.6967">
        <ele>142.8</ele>
        <time>2020-10-07T10:57:12.164Z</time>
      </trkpt>
      <trkpt lat="43.36305" lon="6.69668">
        <ele>142.4</ele>
        <time>2020-10-07T10:57:12.663Z</time>
      </trkpt>
      <trkpt lat="43.363" lon="6.69664">
        <ele>156.6</ele>
        <time>2020-10-07T10:57:19.406Z</time>
      </trkpt>
      <trkpt lat="43.36295" lon="6.69659">
        <ele>157</ele>
        <time>2020-10-07T10:57:23.021Z</time>
      </trkpt>
      <trkpt lat="43.36289" lon="6.69654">
        <ele>157.2</ele>
        <time>2020-10-07T10:57:25.890Z</time>
      </trkpt>
      <trkpt lat="43.36284" lon="6.69647">
        <ele>157.8</ele>
        <time>2020-10-07T10:57:30.745Z</time>
      </trkpt>
      <trkpt lat="43.36279" lon="6.69642">
        <ele>158.1</ele>
        <time>2020-10-07T10:57:33.981Z</time>
      </trkpt>
      <trkpt lat="43.36274" lon="6.69635">
        <ele>159</ele>
        <time>2020-10-07T10:57:41.506Z</time>
      </trkpt>
      <trkpt lat="43.36269" lon="6.69628">
        <ele>160</ele>
        <time>2020-10-07T10:57:49.823Z</time>
      </trkpt>
      <trkpt lat="43.36265" lon="6.6962">
        <ele>161.4</ele>
        <time>2020-10-07T10:57:58.052Z</time>
      </trkpt>
      <trkpt lat="43.3626" lon="6.69615">
        <ele>162.3</ele>
        <time>2020-10-07T10:58:05.258Z</time>
      </trkpt>
      <trkpt lat="43.36255" lon="6.6961">
        <ele>163.3</ele>
        <time>2020-10-07T10:58:12.464Z</time>
      </trkpt>
      <trkpt lat="43.3625" lon="6.69605">
        <ele>161.2</ele>
        <time>2020-10-07T10:58:13.189Z</time>
      </trkpt>
      <trkpt lat="43.36246" lon="6.696">
        <ele>162.5</ele>
        <time>2020-10-07T10:58:19.490Z</time>
      </trkpt>
      <trkpt lat="43.36242" lon="6.69594">
        <ele>163.8</ele>
        <time>2020-10-07T10:58:26.389Z</time>
      </trkpt>
      <trkpt lat="43.36236" lon="6.69588">
        <ele>163.5</ele>
        <time>2020-10-07T10:58:27.384Z</time>
      </trkpt>
      <trkpt lat="43.36231" lon="6.69581">
        <ele>173</ele>
        <time>2020-10-07T10:58:35.701Z</time>
      </trkpt>
      <trkpt lat="43.36227" lon="6.69574">
        <ele>173.6</ele>
        <time>2020-10-07T10:58:40.450Z</time>
      </trkpt>
      <trkpt lat="43.36224" lon="6.69567">
        <ele>174.3</ele>
        <time>2020-10-07T10:58:46.114Z</time>
      </trkpt>
      <trkpt lat="43.36221" lon="6.69561">
        <ele>175</ele>
        <time>2020-10-07T10:58:52.179Z</time>
      </trkpt>
      <trkpt lat="43.36218" lon="6.69554">
        <ele>175.8</ele>
        <time>2020-10-07T10:58:59.066Z</time>
      </trkpt>
      <trkpt lat="43.36215" lon="6.69547">
        <ele>176.6</ele>
        <time>2020-10-07T10:59:05.952Z</time>
      </trkpt>
      <trkpt lat="43.36212" lon="6.69541">
        <ele>177.3</ele>
        <time>2020-10-07T10:59:12.018Z</time>
      </trkpt>
      <trkpt lat="43.36207" lon="6.69536">
        <ele>177.8</ele>
        <time>2020-10-07T10:59:16.113Z</time>
      </trkpt>
      <trkpt lat="43.36201" lon="6.69532">
        <ele>178</ele>
        <time>2020-10-07T10:59:18.892Z</time>
      </trkpt>
      <trkpt lat="43.36196" lon="6.69528">
        <ele>178.3</ele>
        <time>2020-10-07T10:59:21.986Z</time>
      </trkpt>
      <trkpt lat="43.36191" lon="6.69525">
        <ele>178.6</ele>
        <time>2020-10-07T10:59:24.967Z</time>
      </trkpt>
      <trkpt lat="43.36187" lon="6.69522">
        <ele>178.9</ele>
        <time>2020-10-07T10:59:27.653Z</time>
      </trkpt>
      <trkpt lat="43.36181" lon="6.69518">
        <ele>179.6</ele>
        <time>2020-10-07T10:59:33.161Z</time>
      </trkpt>
      <trkpt lat="43.36175" lon="6.69512">
        <ele>180.8</ele>
        <time>2020-10-07T10:59:41.809Z</time>
      </trkpt>
      <trkpt lat="43.36171" lon="6.69507">
        <ele>182</ele>
        <time>2020-10-07T10:59:48.110Z</time>
      </trkpt>
      <trkpt lat="43.36167" lon="6.69503">
        <ele>183.2</ele>
        <time>2020-10-07T10:59:53.875Z</time>
      </trkpt>
      <trkpt lat="43.36162" lon="6.69496">
        <ele>186.8</ele>
        <time>2020-10-07T11:00:02.192Z</time>
      </trkpt>
      <trkpt lat="43.36155" lon="6.6949">
        <ele>189.7</ele>
        <time>2020-10-07T11:00:11.807Z</time>
      </trkpt>
      <trkpt lat="43.36149" lon="6.69485">
        <ele>191.5</ele>
        <time>2020-10-07T11:00:19.985Z</time>
      </trkpt>
      <trkpt lat="43.36143" lon="6.69479">
        <ele>193</ele>
        <time>2020-10-07T11:00:28.633Z</time>
      </trkpt>
      <trkpt lat="43.36135" lon="6.69476">
        <ele>193.9</ele>
        <time>2020-10-07T11:00:35.741Z</time>
      </trkpt>
      <trkpt lat="43.36126" lon="6.69474">
        <ele>194.3</ele>
        <time>2020-10-07T11:00:40.348Z</time>
      </trkpt>
      <trkpt lat="43.36118" lon="6.69474">
        <ele>194.3</ele>
        <time>2020-10-07T11:00:42.766Z</time>
      </trkpt>
      <trkpt lat="43.36108" lon="6.69473">
        <ele>194.2</ele>
        <time>2020-10-07T11:00:44.654Z</time>
      </trkpt>
      <trkpt lat="43.36097" lon="6.69474">
        <ele>193.5</ele>
        <time>2020-10-07T11:00:45.867Z</time>
      </trkpt>
      <trkpt lat="43.36084" lon="6.69473">
        <ele>193.3</ele>
        <time>2020-10-07T11:00:48.156Z</time>
      </trkpt>
      <trkpt lat="43.36071" lon="6.69476">
        <ele>192.2</ele>
        <time>2020-10-07T11:00:49.701Z</time>
      </trkpt>
      <trkpt lat="43.36061" lon="6.69498">
        <ele>190.1</ele>
        <time>2020-10-07T11:00:51.913Z</time>
      </trkpt>
      <trkpt lat="43.36057" lon="6.69526">
        <ele>176.3</ele>
        <time>2020-10-07T11:00:54.345Z</time>
      </trkpt>
      <trkpt lat="43.36063" lon="6.69566">
        <ele>172.4</ele>
        <time>2020-10-07T11:00:57.826Z</time>
      </trkpt>
      <trkpt lat="43.36079" lon="6.69604">
        <ele>162.9</ele>
        <time>2020-10-07T11:01:01.570Z</time>
      </trkpt>
      <trkpt lat="43.3608" lon="6.69652">
        <ele>158</ele>
        <time>2020-10-07T11:01:05.663Z</time>
      </trkpt>
      <trkpt lat="43.3609" lon="6.69699">
        <ele>151.9</ele>
        <time>2020-10-07T11:01:09.837Z</time>
      </trkpt>
      <trkpt lat="43.36113" lon="6.69732">
        <ele>149.2</ele>
        <time>2020-10-07T11:01:13.734Z</time>
      </trkpt>
      <trkpt lat="43.36128" lon="6.69768">
        <ele>143.1</ele>
        <time>2020-10-07T11:01:17.270Z</time>
      </trkpt>
      <trkpt lat="43.36135" lon="6.69808">
        <ele>141.4</ele>
        <time>2020-10-07T11:01:20.742Z</time>
      </trkpt>
      <trkpt lat="43.36131" lon="6.69836">
        <ele>134</ele>
        <time>2020-10-07T11:01:23.174Z</time>
      </trkpt>
      <trkpt lat="43.36116" lon="6.69837">
        <ele>133</ele>
        <time>2020-10-07T11:01:24.788Z</time>
      </trkpt>
      <trkpt lat="43.361" lon="6.69821">
        <ele>138.7</ele>
        <time>2020-10-07T11:01:47.848Z</time>
      </trkpt>
      <trkpt lat="43.36078" lon="6.69803">
        <ele>132.6</ele>
        <time>2020-10-07T11:01:50.850Z</time>
      </trkpt>
      <trkpt lat="43.36055" lon="6.69783">
        <ele>132.3</ele>
        <time>2020-10-07T11:01:55.904Z</time>
      </trkpt>
      <trkpt lat="43.36036" lon="6.69769">
        <ele>130.4</ele>
        <time>2020-10-07T11:01:58.431Z</time>
      </trkpt>
      <trkpt lat="43.36023" lon="6.69758">
        <ele>128.7</ele>
        <time>2020-10-07T11:02:00.220Z</time>
      </trkpt>
      <trkpt lat="43.36011" lon="6.69752">
        <ele>126.9</ele>
        <time>2020-10-07T11:02:01.717Z</time>
      </trkpt>
      <trkpt lat="43.36001" lon="6.69742">
        <ele>129.8</ele>
        <time>2020-10-07T11:02:16.130Z</time>
      </trkpt>
      <trkpt lat="43.35994" lon="6.69726">
        <ele>127.9</ele>
        <time>2020-10-07T11:02:17.722Z</time>
      </trkpt>
      <trkpt lat="43.35976" lon="6.69722">
        <ele>128.2</ele>
        <time>2020-10-07T11:02:24.210Z</time>
      </trkpt>
      <trkpt lat="43.35966" lon="6.69716">
        <ele>128.4</ele>
        <time>2020-10-07T11:02:28.173Z</time>
      </trkpt>
      <trkpt lat="43.35961" lon="6.69712">
        <ele>128.6</ele>
        <time>2020-10-07T11:02:30.732Z</time>
      </trkpt>
      <trkpt lat="43.35956" lon="6.69706">
        <ele>128.8</ele>
        <time>2020-10-07T11:02:33.502Z</time>
      </trkpt>
      <trkpt lat="43.35952" lon="6.69706">
        <ele>128.7</ele>
        <time>2020-10-07T11:02:34.130Z</time>
      </trkpt>
      <trkpt lat="43.35958" lon="6.69723">
        <ele>127.8</ele>
        <time>2020-10-07T11:02:35.619Z</time>
      </trkpt>
      <trkpt lat="43.35969" lon="6.69751">
        <ele>120.9</ele>
        <time>2020-10-07T11:02:38.332Z</time>
      </trkpt>
      <trkpt lat="43.35976" lon="6.69788">
        <ele>119</ele>
        <time>2020-10-07T11:02:41.590Z</time>
      </trkpt>
      <trkpt lat="43.35994" lon="6.69815">
        <ele>115.2</ele>
        <time>2020-10-07T11:02:44.713Z</time>
      </trkpt>
      <trkpt lat="43.36013" lon="6.69848">
        <ele>112.5</ele>
        <time>2020-10-07T11:02:48.301Z</time>
      </trkpt>
      <trkpt lat="43.36032" lon="6.69887">
        <ele>112.1</ele>
        <time>2020-10-07T11:02:54.584Z</time>
      </trkpt>
      <trkpt lat="43.36043" lon="6.69929">
        <ele>102.6</ele>
        <time>2020-10-07T11:02:58.389Z</time>
      </trkpt>
      <trkpt lat="43.36057" lon="6.69965">
        <ele>101.3</ele>
        <time>2020-10-07T11:03:02.245Z</time>
      </trkpt>
      <trkpt lat="43.36063" lon="6.70003">
        <ele>93.9</ele>
        <time>2020-10-07T11:03:05.560Z</time>
      </trkpt>
      <trkpt lat="43.36079" lon="6.70037">
        <ele>91</ele>
        <time>2020-10-07T11:03:09.012Z</time>
      </trkpt>
      <trkpt lat="43.36089" lon="6.7007">
        <ele>95.5</ele>
        <time>2020-10-07T11:03:39.313Z</time>
      </trkpt>
      <trkpt lat="43.36102" lon="6.70103">
        <ele>88</ele>
        <time>2020-10-07T11:03:42.513Z</time>
      </trkpt>
      <trkpt lat="43.36114" lon="6.70139">
        <ele>85.1</ele>
        <time>2020-10-07T11:03:45.888Z</time>
      </trkpt>
      <trkpt lat="43.3614" lon="6.70157">
        <ele>84.9</ele>
        <time>2020-10-07T11:03:53.848Z</time>
      </trkpt>
      <trkpt lat="43.36166" lon="6.70156">
        <ele>84.1</ele>
        <time>2020-10-07T11:03:57.686Z</time>
      </trkpt>
      <trkpt lat="43.36183" lon="6.70147">
        <ele>91.5</ele>
        <time>2020-10-07T11:04:18.921Z</time>
      </trkpt>
      <trkpt lat="43.36202" lon="6.70162">
        <ele>92.3</ele>
        <time>2020-10-07T11:04:28.870Z</time>
      </trkpt>
      <trkpt lat="43.36209" lon="6.70186">
        <ele>79</ele>
        <time>2020-10-07T11:04:31.074Z</time>
      </trkpt>
      <trkpt lat="43.36225" lon="6.7021">
        <ele>77.2</ele>
        <time>2020-10-07T11:04:33.850Z</time>
      </trkpt>
      <trkpt lat="43.36233" lon="6.70244">
        <ele>73.9</ele>
        <time>2020-10-07T11:04:36.896Z</time>
      </trkpt>
      <trkpt lat="43.36241" lon="6.70269">
        <ele>65.1</ele>
        <time>2020-10-07T11:04:39.224Z</time>
      </trkpt>
      <trkpt lat="43.36252" lon="6.70294">
        <ele>66.3</ele>
        <time>2020-10-07T11:04:50.949Z</time>
      </trkpt>
      <trkpt lat="43.3627" lon="6.70309">
        <ele>65</ele>
        <time>2020-10-07T11:04:53.297Z</time>
      </trkpt>
      <trkpt lat="43.36285" lon="6.70307">
        <ele>66.1</ele>
        <time>2020-10-07T11:05:02.674Z</time>
      </trkpt>
      <trkpt lat="43.36297" lon="6.70294">
        <ele>67.5</ele>
        <time>2020-10-07T11:05:13.776Z</time>
      </trkpt>
      <trkpt lat="43.36309" lon="6.70281">
        <ele>69</ele>
        <time>2020-10-07T11:05:25.574Z</time>
      </trkpt>
      <trkpt lat="43.36319" lon="6.70286">
        <ele>68.8</ele>
        <time>2020-10-07T11:05:27.368Z</time>
      </trkpt>
      <trkpt lat="43.36325" lon="6.7029">
        <ele>68.5</ele>
        <time>2020-10-07T11:05:28.225Z</time>
      </trkpt>
      <trkpt lat="43.36332" lon="6.70305">
        <ele>67.1</ele>
        <time>2020-10-07T11:05:29.744Z</time>
      </trkpt>
      <trkpt lat="43.36332" lon="6.70323">
        <ele>65.3</ele>
        <time>2020-10-07T11:05:31.278Z</time>
      </trkpt>
      <trkpt lat="43.36335" lon="6.70344">
        <ele>63</ele>
        <time>2020-10-07T11:05:33.102Z</time>
      </trkpt>
      <trkpt lat="43.36336" lon="6.70366">
        <ele>61.2</ele>
        <time>2020-10-07T11:05:34.981Z</time>
      </trkpt>
      <trkpt lat="43.36336" lon="6.70391">
        <ele>58.7</ele>
        <time>2020-10-07T11:05:37.112Z</time>
      </trkpt>
      <trkpt lat="43.36331" lon="6.70418">
        <ele>53</ele>
        <time>2020-10-07T11:05:39.487Z</time>
      </trkpt>
      <trkpt lat="43.36331" lon="6.70444">
        <ele>47.8</ele>
        <time>2020-10-07T11:05:41.703Z</time>
      </trkpt>
      <trkpt lat="43.36328" lon="6.70473">
        <ele>44.9</ele>
        <time>2020-10-07T11:05:44.200Z</time>
      </trkpt>
      <trkpt lat="43.36333" lon="6.70499">
        <ele>43.1</ele>
        <time>2020-10-07T11:05:46.492Z</time>
      </trkpt>
      <trkpt lat="43.36344" lon="6.70505">
        <ele>40.6</ele>
        <time>2020-10-07T11:05:47.880Z</time>
      </trkpt>
      <trkpt lat="43.36356" lon="6.70508">
        <ele>39.4</ele>
        <time>2020-10-07T11:05:49.309Z</time>
      </trkpt>
      <trkpt lat="43.3637" lon="6.70514">
        <ele>38.7</ele>
        <time>2020-10-07T11:05:51.148Z</time>
      </trkpt>
      <trkpt lat="43.36385" lon="6.7052">
        <ele>38.6</ele>
        <time>2020-10-07T11:05:55.448Z</time>
      </trkpt>
      <trkpt lat="43.36396" lon="6.7051">
        <ele>40.1</ele>
        <time>2020-10-07T11:06:07.416Z</time>
      </trkpt>
      <trkpt lat="43.36411" lon="6.70516">
        <ele>40.7</ele>
        <time>2020-10-07T11:06:14.700Z</time>
      </trkpt>
      <trkpt lat="43.36431" lon="6.70517">
        <ele>38.2</ele>
        <time>2020-10-07T11:06:17.046Z</time>
      </trkpt>
      <trkpt lat="43.3645" lon="6.70513">
        <ele>36.4</ele>
        <time>2020-10-07T11:06:19.300Z</time>
      </trkpt>
      <trkpt lat="43.36468" lon="6.70503">
        <ele>35.4</ele>
        <time>2020-10-07T11:06:21.655Z</time>
      </trkpt>
      <trkpt lat="43.36477" lon="6.70485">
        <ele>42.2</ele>
        <time>2020-10-07T11:06:40.170Z</time>
      </trkpt>
      <trkpt lat="43.3649" lon="6.70484">
        <ele>40.7</ele>
        <time>2020-10-07T11:06:41.696Z</time>
      </trkpt>
      <trkpt lat="43.36503" lon="6.70494">
        <ele>35.9</ele>
        <time>2020-10-07T11:06:43.442Z</time>
      </trkpt>
      <trkpt lat="43.36514" lon="6.70494">
        <ele>36.5</ele>
        <time>2020-10-07T11:06:49.434Z</time>
      </trkpt>
      <trkpt lat="43.36528" lon="6.70504">
        <ele>31.3</ele>
        <time>2020-10-07T11:06:51.283Z</time>
      </trkpt>
      <trkpt lat="43.36547" lon="6.70504">
        <ele>30.7</ele>
        <time>2020-10-07T11:06:54.063Z</time>
      </trkpt>
      <trkpt lat="43.36562" lon="6.70496">
        <ele>35.5</ele>
        <time>2020-10-07T11:07:12.818Z</time>
      </trkpt>
      <trkpt lat="43.36566" lon="6.70515">
        <ele>30.5</ele>
        <time>2020-10-07T11:07:14.504Z</time>
      </trkpt>
      <trkpt lat="43.36562" lon="6.70538">
        <ele>29.3</ele>
        <time>2020-10-07T11:07:16.520Z</time>
      </trkpt>
      <trkpt lat="43.36564" lon="6.70562">
        <ele>27.9</ele>
        <time>2020-10-07T11:07:18.579Z</time>
      </trkpt>
      <trkpt lat="43.3657" lon="6.70589">
        <ele>23.9</ele>
        <time>2020-10-07T11:07:20.985Z</time>
      </trkpt>
      <trkpt lat="43.3658" lon="6.70611">
        <ele>23</ele>
        <time>2020-10-07T11:07:23.351Z</time>
      </trkpt>
      <trkpt lat="43.36596" lon="6.70624">
        <ele>22.7</ele>
        <time>2020-10-07T11:07:26.585Z</time>
      </trkpt>
      <trkpt lat="43.36616" lon="6.70644">
        <ele>22.3</ele>
        <time>2020-10-07T11:07:30.887Z</time>
      </trkpt>
      <trkpt lat="43.36636" lon="6.70669">
        <ele>20.8</ele>
        <time>2020-10-07T11:07:34.058Z</time>
      </trkpt>
      <trkpt lat="43.36659" lon="6.70663">
        <ele>22.9</ele>
        <time>2020-10-07T11:07:50.780Z</time>
      </trkpt>
      <trkpt lat="43.36687" lon="6.70661">
        <ele>20.8</ele>
        <time>2020-10-07T11:07:54.067Z</time>
      </trkpt>
      <trkpt lat="43.36706" lon="6.70691">
        <ele>18.8</ele>
        <time>2020-10-07T11:07:57.458Z</time>
      </trkpt>
      <trkpt lat="43.36721" lon="6.70704">
        <ele>18.1</ele>
        <time>2020-10-07T11:07:59.856Z</time>
      </trkpt>
      <trkpt lat="43.36725" lon="6.70675">
        <ele>17.9</ele>
        <time>2020-10-07T11:08:03.933Z</time>
      </trkpt>
      <trkpt lat="43.3673" lon="6.70638">
        <ele>18.3</ele>
        <time>2020-10-07T11:08:13.480Z</time>
      </trkpt>
      <trkpt lat="43.36752" lon="6.70634">
        <ele>14.8</ele>
        <time>2020-10-07T11:08:16.082Z</time>
      </trkpt>
      <trkpt lat="43.3677" lon="6.70652">
        <ele>14.8</ele>
        <time>2020-10-07T11:08:22.807Z</time>
      </trkpt>
      <trkpt lat="43.36783" lon="6.70629">
        <ele>14.4</ele>
        <time>2020-10-07T11:08:26.374Z</time>
      </trkpt>
      <trkpt lat="43.36791" lon="6.70598">
        <ele>14.3</ele>
        <time>2020-10-07T11:08:33.166Z</time>
      </trkpt>
      <trkpt lat="43.36786" lon="6.7057">
        <ele>15.3</ele>
        <time>2020-10-07T11:08:44.079Z</time>
      </trkpt>
      <trkpt lat="43.36792" lon="6.70543">
        <ele>15.5</ele>
        <time>2020-10-07T11:08:50.890Z</time>
      </trkpt>
      <trkpt lat="43.36787" lon="6.70512">
        <ele>16</ele>
        <time>2020-10-07T11:08:59.593Z</time>
      </trkpt>
      <trkpt lat="43.36788" lon="6.70481">
        <ele>17.6</ele>
        <time>2020-10-07T11:09:13.409Z</time>
      </trkpt>
      <trkpt lat="43.36791" lon="6.70451">
        <ele>17.9</ele>
        <time>2020-10-07T11:09:21.011Z</time>
      </trkpt>
      <trkpt lat="43.36791" lon="6.70451">
        <ele>17.9</ele>
        <time>2020-10-07T11:09:21.011Z</time>
      </trkpt>
      <trkpt lat="43.36798" lon="6.7043">
        <ele>17.7</ele>
        <time>2020-10-07T11:09:24.095Z</time>
      </trkpt>
      <trkpt lat="43.36809" lon="6.7043">
        <ele>16.9</ele>
        <time>2020-10-07T11:09:25.385Z</time>
      </trkpt>
      <trkpt lat="43.36822" lon="6.70437">
        <ele>16.3</ele>
        <time>2020-10-07T11:09:27.212Z</time>
      </trkpt>
      <trkpt lat="43.36834" lon="6.70443">
        <ele>18.3</ele>
        <time>2020-10-07T11:09:42.097Z</time>
      </trkpt>
      <trkpt lat="43.36845" lon="6.70453">
        <ele>19.3</ele>
        <time>2020-10-07T11:09:50.485Z</time>
      </trkpt>
      <trkpt lat="43.36854" lon="6.70465">
        <ele>19.9</ele>
        <time>2020-10-07T11:09:57.017Z</time>
      </trkpt>
      <trkpt lat="43.36862" lon="6.70478">
        <ele>20.3</ele>
        <time>2020-10-07T11:10:02.332Z</time>
      </trkpt>
      <trkpt lat="43.3687" lon="6.70494">
        <ele>21</ele>
        <time>2020-10-07T11:10:09.772Z</time>
      </trkpt>
      <trkpt lat="43.36875" lon="6.70511">
        <ele>21.7</ele>
        <time>2020-10-07T11:10:16.935Z</time>
      </trkpt>
      <trkpt lat="43.36877" lon="6.70523">
        <ele>21.9</ele>
        <time>2020-10-07T11:10:20.336Z</time>
      </trkpt>
      <trkpt lat="43.36879" lon="6.70532">
        <ele>22.1</ele>
        <time>2020-10-07T11:10:23.160Z</time>
      </trkpt>
      <trkpt lat="43.3688" lon="6.7054">
        <ele>22.2</ele>
        <time>2020-10-07T11:10:25.271Z</time>
      </trkpt>
      <trkpt lat="43.36881" lon="6.70549">
        <ele>22.3</ele>
        <time>2020-10-07T11:10:27.593Z</time>
      </trkpt>
      <trkpt lat="43.36885" lon="6.70554">
        <ele>22.8</ele>
        <time>2020-10-07T11:10:31.552Z</time>
      </trkpt>
      <trkpt lat="43.36892" lon="6.70552">
        <ele>23.4</ele>
        <time>2020-10-07T11:10:36.410Z</time>
      </trkpt>
      <trkpt lat="43.36898" lon="6.70549">
        <ele>23.8</ele>
        <time>2020-10-07T11:10:40.089Z</time>
      </trkpt>
      <trkpt lat="43.36903" lon="6.70546">
        <ele>24.1</ele>
        <time>2020-10-07T11:10:43.069Z</time>
      </trkpt>
      <trkpt lat="43.36908" lon="6.70543">
        <ele>24.4</ele>
        <time>2020-10-07T11:10:46.049Z</time>
      </trkpt>
      <trkpt lat="43.36913" lon="6.70541">
        <ele>24.6</ele>
        <time>2020-10-07T11:10:48.477Z</time>
      </trkpt>
      <trkpt lat="43.36918" lon="6.70539">
        <ele>36.1</ele>
        <time>2020-10-07T11:10:54.547Z</time>
      </trkpt>
      <trkpt lat="43.36922" lon="6.70537">
        <ele>36.3</ele>
        <time>2020-10-07T11:10:56.753Z</time>
      </trkpt>
      <trkpt lat="43.36927" lon="6.70534">
        <ele>36.5</ele>
        <time>2020-10-07T11:10:59.235Z</time>
      </trkpt>
      <trkpt lat="43.36932" lon="6.7053">
        <ele>36.7</ele>
        <time>2020-10-07T11:11:01.794Z</time>
      </trkpt>
      <trkpt lat="43.36937" lon="6.70528">
        <ele>37.1</ele>
        <time>2020-10-07T11:11:05.132Z</time>
      </trkpt>
      <trkpt lat="43.36941" lon="6.70525">
        <ele>37.5</ele>
        <time>2020-10-07T11:11:08.332Z</time>
      </trkpt>
      <trkpt lat="43.36947" lon="6.70523">
        <ele>38.2</ele>
        <time>2020-10-07T11:11:13.912Z</time>
      </trkpt>
      <trkpt lat="43.36952" lon="6.70521">
        <ele>38.8</ele>
        <time>2020-10-07T11:11:18.718Z</time>
      </trkpt>
      <trkpt lat="43.36958" lon="6.70518">
        <ele>39.6</ele>
        <time>2020-10-07T11:11:25.378Z</time>
      </trkpt>
      <trkpt lat="43.36964" lon="6.70516">
        <ele>40.5</ele>
        <time>2020-10-07T11:11:32.575Z</time>
      </trkpt>
      <trkpt lat="43.3697" lon="6.70512">
        <ele>41.3</ele>
        <time>2020-10-07T11:11:39.083Z</time>
      </trkpt>
      <trkpt lat="43.36977" lon="6.70509">
        <ele>42.4</ele>
        <time>2020-10-07T11:11:47.630Z</time>
      </trkpt>
      <trkpt lat="43.36983" lon="6.70504">
        <ele>43.4</ele>
        <time>2020-10-07T11:11:55.808Z</time>
      </trkpt>
      <trkpt lat="43.3699" lon="6.70499">
        <ele>43.8</ele>
        <time>2020-10-07T11:11:59.996Z</time>
      </trkpt>
      <trkpt lat="43.36997" lon="6.70491">
        <ele>44.1</ele>
        <time>2020-10-07T11:12:03.936Z</time>
      </trkpt>
      <trkpt lat="43.37004" lon="6.70482">
        <ele>51.5</ele>
        <time>2020-10-07T11:12:15.105Z</time>
      </trkpt>
      <trkpt lat="43.3701" lon="6.70473">
        <ele>52.7</ele>
        <time>2020-10-07T11:12:25.454Z</time>
      </trkpt>
      <trkpt lat="43.37016" lon="6.70465">
        <ele>53.4</ele>
        <time>2020-10-07T11:12:31.124Z</time>
      </trkpt>
      <trkpt lat="43.37022" lon="6.70456">
        <ele>53.9</ele>
        <time>2020-10-07T11:12:36.018Z</time>
      </trkpt>
      <trkpt lat="43.37028" lon="6.70447">
        <ele>54.2</ele>
        <time>2020-10-07T11:12:39.904Z</time>
      </trkpt>
      <trkpt lat="43.37036" lon="6.70437">
        <ele>54.9</ele>
        <time>2020-10-07T11:12:46.228Z</time>
      </trkpt>
      <trkpt lat="43.37043" lon="6.70426">
        <ele>55.7</ele>
        <time>2020-10-07T11:12:52.959Z</time>
      </trkpt>
      <trkpt lat="43.3705" lon="6.70416">
        <ele>53.5</ele>
        <time>2020-10-07T11:12:54.142Z</time>
      </trkpt>
      <trkpt lat="43.37057" lon="6.70404">
        <ele>54.3</ele>
        <time>2020-10-07T11:13:01.023Z</time>
      </trkpt>
      <trkpt lat="43.37064" lon="6.70393">
        <ele>54.4</ele>
        <time>2020-10-07T11:13:04.538Z</time>
      </trkpt>
      <trkpt lat="43.37071" lon="6.70382">
        <ele>54</ele>
        <time>2020-10-07T11:13:06.002Z</time>
      </trkpt>
      <trkpt lat="43.37079" lon="6.70369">
        <ele>53.6</ele>
        <time>2020-10-07T11:13:07.800Z</time>
      </trkpt>
      <trkpt lat="43.37088" lon="6.70356">
        <ele>62.8</ele>
        <time>2020-10-07T11:13:23.013Z</time>
      </trkpt>
      <trkpt lat="43.37097" lon="6.70339">
        <ele>61.1</ele>
        <time>2020-10-07T11:13:24.805Z</time>
      </trkpt>
      <trkpt lat="43.37102" lon="6.70318">
        <ele>58.7</ele>
        <time>2020-10-07T11:13:26.688Z</time>
      </trkpt>
      <trkpt lat="43.37111" lon="6.70296">
        <ele>59.4</ele>
        <time>2020-10-07T11:13:35.213Z</time>
      </trkpt>
      <trkpt lat="43.37118" lon="6.70273">
        <ele>58.9</ele>
        <time>2020-10-07T11:13:37.979Z</time>
      </trkpt>
      <trkpt lat="43.37122" lon="6.70254">
        <ele>58.8</ele>
        <time>2020-10-07T11:13:41.907Z</time>
      </trkpt>
      <trkpt lat="43.37127" lon="6.70238">
        <ele>54.7</ele>
        <time>2020-10-07T11:13:43.391Z</time>
      </trkpt>
      <trkpt lat="43.37132" lon="6.70225">
        <ele>54.9</ele>
        <time>2020-10-07T11:13:47.290Z</time>
      </trkpt>
      <trkpt lat="43.37138" lon="6.70211">
        <ele>54.7</ele>
        <time>2020-10-07T11:13:49.327Z</time>
      </trkpt>
      <trkpt lat="43.37145" lon="6.702">
        <ele>54.8</ele>
        <time>2020-10-07T11:13:52.842Z</time>
      </trkpt>
      <trkpt lat="43.37155" lon="6.70191">
        <ele>55.2</ele>
        <time>2020-10-07T11:13:58.050Z</time>
      </trkpt>
      <trkpt lat="43.37166" lon="6.70186">
        <ele>55.7</ele>
        <time>2020-10-07T11:14:03.841Z</time>
      </trkpt>
      <trkpt lat="43.37177" lon="6.70183">
        <ele>64.2</ele>
        <time>2020-10-07T11:14:16.914Z</time>
      </trkpt>
      <trkpt lat="43.37188" lon="6.70179">
        <ele>65.5</ele>
        <time>2020-10-07T11:14:27.299Z</time>
      </trkpt>
      <trkpt lat="43.37198" lon="6.70174">
        <ele>67</ele>
        <time>2020-10-07T11:14:39.702Z</time>
      </trkpt>
      <trkpt lat="43.37208" lon="6.7017">
        <ele>68.4</ele>
        <time>2020-10-07T11:14:51.843Z</time>
      </trkpt>
      <trkpt lat="43.37218" lon="6.70166">
        <ele>63.4</ele>
        <time>2020-10-07T11:14:53.064Z</time>
      </trkpt>
      <trkpt lat="43.37226" lon="6.70164">
        <ele>64.9</ele>
        <time>2020-10-07T11:15:02.542Z</time>
      </trkpt>
      <trkpt lat="43.37233" lon="6.70163">
        <ele>66.4</ele>
        <time>2020-10-07T11:15:10.746Z</time>
      </trkpt>
      <trkpt lat="43.3724" lon="6.70162">
        <ele>68.3</ele>
        <time>2020-10-07T11:15:18.951Z</time>
      </trkpt>
      <trkpt lat="43.37247" lon="6.70161">
        <ele>70</ele>
        <time>2020-10-07T11:15:27.155Z</time>
      </trkpt>
      <trkpt lat="43.37254" lon="6.7016">
        <ele>73.9</ele>
        <time>2020-10-07T11:15:35.359Z</time>
      </trkpt>
      <trkpt lat="43.37262" lon="6.7016">
        <ele>74.5</ele>
        <time>2020-10-07T11:15:40.415Z</time>
      </trkpt>
      <trkpt lat="43.37262" lon="6.7016">
        <ele>74.5</ele>
        <time>2020-10-07T11:15:40.415Z</time>
      </trkpt>
      <trkpt lat="43.3728" lon="6.70157">
        <ele>76.5</ele>
        <time>2020-10-07T11:15:56.256Z</time>
      </trkpt>
      <trkpt lat="43.37288" lon="6.70152">
        <ele>77.4</ele>
        <time>2020-10-07T11:16:03.329Z</time>
      </trkpt>
      <trkpt lat="43.37294" lon="6.70148">
        <ele>78</ele>
        <time>2020-10-07T11:16:08.104Z</time>
      </trkpt>
      <trkpt lat="43.373" lon="6.70144">
        <ele>78.6</ele>
        <time>2020-10-07T11:16:12.878Z</time>
      </trkpt>
      <trkpt lat="43.37304" lon="6.70138">
        <ele>78.8</ele>
        <time>2020-10-07T11:16:15.469Z</time>
      </trkpt>
      <trkpt lat="43.37306" lon="6.70131">
        <ele>78.6</ele>
        <time>2020-10-07T11:16:16.229Z</time>
      </trkpt>
      <trkpt lat="43.37309" lon="6.70125">
        <ele>78.7</ele>
        <time>2020-10-07T11:16:18.164Z</time>
      </trkpt>
      <trkpt lat="43.37313" lon="6.70118">
        <ele>78.9</ele>
        <time>2020-10-07T11:16:20.892Z</time>
      </trkpt>
      <trkpt lat="43.37317" lon="6.70112">
        <ele>79.3</ele>
        <time>2020-10-07T11:16:24.427Z</time>
      </trkpt>
      <trkpt lat="43.3732" lon="6.70106">
        <ele>79.8</ele>
        <time>2020-10-07T11:16:28.374Z</time>
      </trkpt>
      <trkpt lat="43.37324" lon="6.701">
        <ele>80.7</ele>
        <time>2020-10-07T11:16:35.273Z</time>
      </trkpt>
      <trkpt lat="43.37328" lon="6.70094">
        <ele>81.9</ele>
        <time>2020-10-07T11:16:42.172Z</time>
      </trkpt>
      <trkpt lat="43.37331" lon="6.70087">
        <ele>83.6</ele>
        <time>2020-10-07T11:16:49.058Z</time>
      </trkpt>
      <trkpt lat="43.37335" lon="6.70082">
        <ele>85.8</ele>
        <time>2020-10-07T11:16:55.358Z</time>
      </trkpt>
      <trkpt lat="43.37338" lon="6.70078">
        <ele>87.3</ele>
        <time>2020-10-07T11:17:00.228Z</time>
      </trkpt>
      <trkpt lat="43.37339" lon="6.70071">
        <ele>88.8</ele>
        <time>2020-10-07T11:17:06.273Z</time>
      </trkpt>
      <trkpt lat="43.37342" lon="6.70064">
        <ele>90</ele>
        <time>2020-10-07T11:17:13.159Z</time>
      </trkpt>
      <trkpt lat="43.37345" lon="6.70057">
        <ele>90.9</ele>
        <time>2020-10-07T11:17:20.045Z</time>
      </trkpt>
      <trkpt lat="43.37349" lon="6.70051">
        <ele>91.6</ele>
        <time>2020-10-07T11:17:25.705Z</time>
      </trkpt>
      <trkpt lat="43.37353" lon="6.70046">
        <ele>92.1</ele>
        <time>2020-10-07T11:17:29.664Z</time>
      </trkpt>
      <trkpt lat="43.37356" lon="6.70039">
        <ele>92.5</ele>
        <time>2020-10-07T11:17:33.195Z</time>
      </trkpt>
      <trkpt lat="43.37358" lon="6.70032">
        <ele>92.6</ele>
        <time>2020-10-07T11:17:35.180Z</time>
      </trkpt>
      <trkpt lat="43.37361" lon="6.70025">
        <ele>92.9</ele>
        <time>2020-10-07T11:17:38.318Z</time>
      </trkpt>
      <trkpt lat="43.37363" lon="6.70019">
        <ele>93</ele>
        <time>2020-10-07T11:17:40.110Z</time>
      </trkpt>
      <trkpt lat="43.37366" lon="6.70012">
        <ele>93.4</ele>
        <time>2020-10-07T11:17:43.642Z</time>
      </trkpt>
      <trkpt lat="43.3737" lon="6.70008">
        <ele>94.1</ele>
        <time>2020-10-07T11:17:49.406Z</time>
      </trkpt>
      <trkpt lat="43.37375" lon="6.70006">
        <ele>95</ele>
        <time>2020-10-07T11:17:55.476Z</time>
      </trkpt>
      <trkpt lat="43.37379" lon="6.70007">
        <ele>95.8</ele>
        <time>2020-10-07T11:18:00.216Z</time>
      </trkpt>
      <trkpt lat="43.37383" lon="6.70013">
        <ele>96.4</ele>
        <time>2020-10-07T11:18:04.931Z</time>
      </trkpt>
      <trkpt lat="43.37387" lon="6.70019">
        <ele>96.8</ele>
        <time>2020-10-07T11:18:08.466Z</time>
      </trkpt>
      <trkpt lat="43.3739" lon="6.70024">
        <ele>97</ele>
        <time>2020-10-07T11:18:10.796Z</time>
      </trkpt>
      <trkpt lat="43.37392" lon="6.70029">
        <ele>96.9</ele>
        <time>2020-10-07T11:18:11.453Z</time>
      </trkpt>
      <trkpt lat="43.37395" lon="6.70033">
        <ele>97.1</ele>
        <time>2020-10-07T11:18:13.631Z</time>
      </trkpt>
      <trkpt lat="43.374" lon="6.70037">
        <ele>97.3</ele>
        <time>2020-10-07T11:18:16.189Z</time>
      </trkpt>
      <trkpt lat="43.37405" lon="6.70039">
        <ele>97.6</ele>
        <time>2020-10-07T11:18:19.085Z</time>
      </trkpt>
      <trkpt lat="43.37411" lon="6.7004">
        <ele>97.9</ele>
        <time>2020-10-07T11:18:22.272Z</time>
      </trkpt>
      <trkpt lat="43.37416" lon="6.70035">
        <ele>98.5</ele>
        <time>2020-10-07T11:18:26.995Z</time>
      </trkpt>
      <trkpt lat="43.37422" lon="6.70027">
        <ele>105.9</ele>
        <time>2020-10-07T11:18:36.736Z</time>
      </trkpt>
      <trkpt lat="43.3743" lon="6.70019">
        <ele>106.3</ele>
        <time>2020-10-07T11:18:41.484Z</time>
      </trkpt>
      <trkpt lat="43.3744" lon="6.70007">
        <ele>106.7</ele>
        <time>2020-10-07T11:18:47.024Z</time>
      </trkpt>
      <trkpt lat="43.37451" lon="6.69994">
        <ele>110.4</ele>
        <time>2020-10-07T11:19:03.929Z</time>
      </trkpt>
      <trkpt lat="43.37461" lon="6.69981">
        <ele>111</ele>
        <time>2020-10-07T11:19:10.853Z</time>
      </trkpt>
      <trkpt lat="43.37471" lon="6.69968">
        <ele>111.5</ele>
        <time>2020-10-07T11:19:17.086Z</time>
      </trkpt>
      <trkpt lat="43.37481" lon="6.69956">
        <ele>111.8</ele>
        <time>2020-10-07T11:19:22.144Z</time>
      </trkpt>
      <trkpt lat="43.37494" lon="6.69945">
        <ele>112.3</ele>
        <time>2020-10-07T11:19:28.734Z</time>
      </trkpt>
      <trkpt lat="43.37508" lon="6.69946">
        <ele>116.8</ele>
        <time>2020-10-07T11:19:45.077Z</time>
      </trkpt>
      <trkpt lat="43.37518" lon="6.69959">
        <ele>117.2</ele>
        <time>2020-10-07T11:19:50.744Z</time>
      </trkpt>
      <trkpt lat="43.37524" lon="6.69974">
        <ele>117</ele>
        <time>2020-10-07T11:19:52.912Z</time>
      </trkpt>
      <trkpt lat="43.37531" lon="6.69987">
        <ele>117.1</ele>
        <time>2020-10-07T11:19:56.766Z</time>
      </trkpt>
      <trkpt lat="43.37538" lon="6.69995">
        <ele>117.4</ele>
        <time>2020-10-07T11:20:00.707Z</time>
      </trkpt>
      <trkpt lat="43.37545" lon="6.70001">
        <ele>112.5</ele>
        <time>2020-10-07T11:20:01.674Z</time>
      </trkpt>
      <trkpt lat="43.37552" lon="6.70004">
        <ele>112.9</ele>
        <time>2020-10-07T11:20:05.667Z</time>
      </trkpt>
      <trkpt lat="43.3756" lon="6.70005">
        <ele>113.7</ele>
        <time>2020-10-07T11:20:11.956Z</time>
      </trkpt>
      <trkpt lat="43.37568" lon="6.70005">
        <ele>114.8</ele>
        <time>2020-10-07T11:20:21.282Z</time>
      </trkpt>
      <trkpt lat="43.37576" lon="6.70004">
        <ele>116.4</ele>
        <time>2020-10-07T11:20:30.646Z</time>
      </trkpt>
      <trkpt lat="43.37587" lon="6.70002">
        <ele>117.4</ele>
        <time>2020-10-07T11:20:38.601Z</time>
      </trkpt>
      <trkpt lat="43.376" lon="6.70001">
        <ele>114.1</ele>
        <time>2020-10-07T11:20:40.128Z</time>
      </trkpt>
      <trkpt lat="43.37613" lon="6.69991">
        <ele>121.1</ele>
        <time>2020-10-07T11:20:57.490Z</time>
      </trkpt>
      <trkpt lat="43.37633" lon="6.69983">
        <ele>120.9</ele>
        <time>2020-10-07T11:21:01.432Z</time>
      </trkpt>
      <trkpt lat="43.37655" lon="6.69975">
        <ele>120.5</ele>
        <time>2020-10-07T11:21:05.325Z</time>
      </trkpt>
      <trkpt lat="43.37681" lon="6.69959">
        <ele>124</ele>
        <time>2020-10-07T11:21:34.135Z</time>
      </trkpt>
      <trkpt lat="43.37705" lon="6.69935">
        <ele>126.9</ele>
        <time>2020-10-07T11:21:56.952Z</time>
      </trkpt>
      <trkpt lat="43.3772" lon="6.69945">
        <ele>126.3</ele>
        <time>2020-10-07T11:21:59.284Z</time>
      </trkpt>
      <trkpt lat="43.37727" lon="6.69957">
        <ele>125</ele>
        <time>2020-10-07T11:22:00.595Z</time>
      </trkpt>
      <trkpt lat="43.37735" lon="6.69968">
        <ele>123.5</ele>
        <time>2020-10-07T11:22:01.921Z</time>
      </trkpt>
      <trkpt lat="43.37743" lon="6.6998">
        <ele>121.6</ele>
        <time>2020-10-07T11:22:03.309Z</time>
      </trkpt>
      <trkpt lat="43.37751" lon="6.6999">
        <ele>122.4</ele>
        <time>2020-10-07T11:22:10.087Z</time>
      </trkpt>
      <trkpt lat="43.37758" lon="6.69995">
        <ele>122.2</ele>
        <time>2020-10-07T11:22:11.321Z</time>
      </trkpt>
      <trkpt lat="43.37768" lon="6.7">
        <ele>117.5</ele>
        <time>2020-10-07T11:22:12.568Z</time>
      </trkpt>
      <trkpt lat="43.37774" lon="6.70008">
        <ele>117.6</ele>
        <time>2020-10-07T11:22:15.404Z</time>
      </trkpt>
      <trkpt lat="43.37782" lon="6.70014">
        <ele>118.1</ele>
        <time>2020-10-07T11:22:20.378Z</time>
      </trkpt>
      <trkpt lat="43.37789" lon="6.70018">
        <ele>118.6</ele>
        <time>2020-10-07T11:22:24.852Z</time>
      </trkpt>
      <trkpt lat="43.37797" lon="6.70024">
        <ele>119.1</ele>
        <time>2020-10-07T11:22:29.826Z</time>
      </trkpt>
      <trkpt lat="43.37804" lon="6.70027">
        <ele>119.7</ele>
        <time>2020-10-07T11:22:34.722Z</time>
      </trkpt>
      <trkpt lat="43.37811" lon="6.70027">
        <ele>120.7</ele>
        <time>2020-10-07T11:22:42.882Z</time>
      </trkpt>
      <trkpt lat="43.37819" lon="6.70029">
        <ele>121.4</ele>
        <time>2020-10-07T11:22:48.510Z</time>
      </trkpt>
      <trkpt lat="43.37828" lon="6.70031">
        <ele>121.8</ele>
        <time>2020-10-07T11:22:53.116Z</time>
      </trkpt>
      <trkpt lat="43.37838" lon="6.70034">
        <ele>126.2</ele>
        <time>2020-10-07T11:23:05.048Z</time>
      </trkpt>
      <trkpt lat="43.37848" lon="6.70039">
        <ele>125.3</ele>
        <time>2020-10-07T11:23:06.295Z</time>
      </trkpt>
      <trkpt lat="43.3786" lon="6.70046">
        <ele>124.5</ele>
        <time>2020-10-07T11:23:07.754Z</time>
      </trkpt>
      <trkpt lat="43.37871" lon="6.70058">
        <ele>123.8</ele>
        <time>2020-10-07T11:23:09.481Z</time>
      </trkpt>
      <trkpt lat="43.37887" lon="6.70074">
        <ele>123.6</ele>
        <time>2020-10-07T11:23:13.200Z</time>
      </trkpt>
      <trkpt lat="43.37895" lon="6.70102">
        <ele>120.3</ele>
        <time>2020-10-07T11:23:15.764Z</time>
      </trkpt>
      <trkpt lat="43.3791" lon="6.70134">
        <ele>120.5</ele>
        <time>2020-10-07T11:23:24.721Z</time>
      </trkpt>
      <trkpt lat="43.37939" lon="6.70159">
        <ele>123.9</ele>
        <time>2020-10-07T11:23:51.449Z</time>
      </trkpt>
      <trkpt lat="43.37971" lon="6.70143">
        <ele>124</ele>
        <time>2020-10-07T11:24:02.023Z</time>
      </trkpt>
      <trkpt lat="43.38001" lon="6.70121">
        <ele>121.3</ele>
        <time>2020-10-07T11:24:06.009Z</time>
      </trkpt>
      <trkpt lat="43.38034" lon="6.70097">
        <ele>119.3</ele>
        <time>2020-10-07T11:24:10.460Z</time>
      </trkpt>
      <trkpt lat="43.38066" lon="6.70076">
        <ele>113.2</ele>
        <time>2020-10-07T11:24:14.616Z</time>
      </trkpt>
      <trkpt lat="43.38099" lon="6.70071">
        <ele>108.5</ele>
        <time>2020-10-07T11:24:18.508Z</time>
      </trkpt>
      <trkpt lat="43.38134" lon="6.70074">
        <ele>104.9</ele>
        <time>2020-10-07T11:24:22.620Z</time>
      </trkpt>
      <trkpt lat="43.38168" lon="6.70076">
        <ele>99.5</ele>
        <time>2020-10-07T11:24:26.610Z</time>
      </trkpt>
      <trkpt lat="43.38194" lon="6.70074">
        <ele>98.2</ele>
        <time>2020-10-07T11:24:29.813Z</time>
      </trkpt>
      <trkpt lat="43.38196" lon="6.70087">
        <ele>99.9</ele>
        <time>2020-10-07T11:24:41.071Z</time>
      </trkpt>
      <trkpt lat="43.38204" lon="6.70106">
        <ele>100.1</ele>
        <time>2020-10-07T11:24:46.520Z</time>
      </trkpt>
      <trkpt lat="43.38216" lon="6.70112">
        <ele>99.6</ele>
        <time>2020-10-07T11:24:48.253Z</time>
      </trkpt>
      <trkpt lat="43.38227" lon="6.70123">
        <ele>99.5</ele>
        <time>2020-10-07T11:24:50.906Z</time>
      </trkpt>
      <trkpt lat="43.38243" lon="6.7014">
        <ele>99.4</ele>
        <time>2020-10-07T11:24:56.585Z</time>
      </trkpt>
      <trkpt lat="43.38261" lon="6.70157">
        <ele>95.5</ele>
        <time>2020-10-07T11:24:59.145Z</time>
      </trkpt>
      <trkpt lat="43.38279" lon="6.70177">
        <ele>96.4</ele>
        <time>2020-10-07T11:25:10.008Z</time>
      </trkpt>
      <trkpt lat="43.38294" lon="6.702">
        <ele>96</ele>
        <time>2020-10-07T11:25:13.839Z</time>
      </trkpt>
      <trkpt lat="43.383" lon="6.70232">
        <ele>96.9</ele>
        <time>2020-10-07T11:25:24.892Z</time>
      </trkpt>
      <trkpt lat="43.38306" lon="6.70258">
        <ele>103.2</ele>
        <time>2020-10-07T11:25:48.004Z</time>
      </trkpt>
      <trkpt lat="43.38305" lon="6.70285">
        <ele>106.2</ele>
        <time>2020-10-07T11:26:10.909Z</time>
      </trkpt>
      <trkpt lat="43.38312" lon="6.70303">
        <ele>107</ele>
        <time>2020-10-07T11:26:18.956Z</time>
      </trkpt>
      <trkpt lat="43.38327" lon="6.7031">
        <ele>106.2</ele>
        <time>2020-10-07T11:26:20.895Z</time>
      </trkpt>
      <trkpt lat="43.3834" lon="6.7032">
        <ele>100</ele>
        <time>2020-10-07T11:26:22.641Z</time>
      </trkpt>
      <trkpt lat="43.38345" lon="6.70337">
        <ele>106.3</ele>
        <time>2020-10-07T11:26:38.179Z</time>
      </trkpt>
      <trkpt lat="43.38352" lon="6.70348">
        <ele>107.2</ele>
        <time>2020-10-07T11:26:45.447Z</time>
      </trkpt>
      <trkpt lat="43.38364" lon="6.70357">
        <ele>107.7</ele>
        <time>2020-10-07T11:26:51.659Z</time>
      </trkpt>
      <trkpt lat="43.38376" lon="6.70361">
        <ele>107.5</ele>
        <time>2020-10-07T11:26:53.807Z</time>
      </trkpt>
      <trkpt lat="43.38383" lon="6.70363">
        <ele>107.3</ele>
        <time>2020-10-07T11:26:54.893Z</time>
      </trkpt>
      <trkpt lat="43.38391" lon="6.70357">
        <ele>106.2</ele>
        <time>2020-10-07T11:26:55.961Z</time>
      </trkpt>
      <trkpt lat="43.38399" lon="6.70359">
        <ele>105.8</ele>
        <time>2020-10-07T11:26:56.968Z</time>
      </trkpt>
      <trkpt lat="43.38405" lon="6.70362">
        <ele>105.8</ele>
        <time>2020-10-07T11:26:58.897Z</time>
      </trkpt>
      <trkpt lat="43.38411" lon="6.70364">
        <ele>105.8</ele>
        <time>2020-10-07T11:27:00.763Z</time>
      </trkpt>
      <trkpt lat="43.38416" lon="6.70368">
        <ele>106.2</ele>
        <time>2020-10-07T11:27:04.258Z</time>
      </trkpt>
      <trkpt lat="43.38418" lon="6.70373">
        <ele>100.5</ele>
        <time>2020-10-07T11:27:04.745Z</time>
      </trkpt>
      <trkpt lat="43.3842" lon="6.70379">
        <ele>101.2</ele>
        <time>2020-10-07T11:27:10.337Z</time>
      </trkpt>
      <trkpt lat="43.38424" lon="6.70386">
        <ele>102</ele>
        <time>2020-10-07T11:27:16.944Z</time>
      </trkpt>
      <trkpt lat="43.3843" lon="6.70394">
        <ele>102.7</ele>
        <time>2020-10-07T11:27:22.615Z</time>
      </trkpt>
      <trkpt lat="43.38434" lon="6.70404">
        <ele>103.6</ele>
        <time>2020-10-07T11:27:29.723Z</time>
      </trkpt>
      <trkpt lat="43.38428" lon="6.70411">
        <ele>105.9</ele>
        <time>2020-10-07T11:27:38.893Z</time>
      </trkpt>
      <trkpt lat="43.38423" lon="6.70422">
        <ele>109.1</ele>
        <time>2020-10-07T11:27:49.885Z</time>
      </trkpt>
      <trkpt lat="43.38417" lon="6.70431">
        <ele>108.3</ele>
        <time>2020-10-07T11:27:50.926Z</time>
      </trkpt>
      <trkpt lat="43.38412" lon="6.70443">
        <ele>115.4</ele>
        <time>2020-10-07T11:28:02.645Z</time>
      </trkpt>
      <trkpt lat="43.38407" lon="6.70455">
        <ele>116.3</ele>
        <time>2020-10-07T11:28:09.814Z</time>
      </trkpt>
      <trkpt lat="43.38405" lon="6.70468">
        <ele>116.6</ele>
        <time>2020-10-07T11:28:13.894Z</time>
      </trkpt>
      <trkpt lat="43.38406" lon="6.70488">
        <ele>116</ele>
        <time>2020-10-07T11:28:15.833Z</time>
      </trkpt>
      <trkpt lat="43.38408" lon="6.70511">
        <ele>116.1</ele>
        <time>2020-10-07T11:28:21.214Z</time>
      </trkpt>
      <trkpt lat="43.38414" lon="6.70538">
        <ele>116.7</ele>
        <time>2020-10-07T11:28:29.684Z</time>
      </trkpt>
      <trkpt lat="43.38433" lon="6.70569">
        <ele>107.5</ele>
        <time>2020-10-07T11:28:33.139Z</time>
      </trkpt>
      <trkpt lat="43.38459" lon="6.70582">
        <ele>104.8</ele>
        <time>2020-10-07T11:28:36.383Z</time>
      </trkpt>
      <trkpt lat="43.38485" lon="6.70584">
        <ele>101.6</ele>
        <time>2020-10-07T11:28:39.436Z</time>
      </trkpt>
      <trkpt lat="43.38498" lon="6.70606">
        <ele>102.1</ele>
        <time>2020-10-07T11:28:47.443Z</time>
      </trkpt>
      <trkpt lat="43.38517" lon="6.70633">
        <ele>98.8</ele>
        <time>2020-10-07T11:28:50.646Z</time>
      </trkpt>
      <trkpt lat="43.38532" lon="6.70659">
        <ele>99.3</ele>
        <time>2020-10-07T11:28:59.646Z</time>
      </trkpt>
      <trkpt lat="43.38546" lon="6.70685">
        <ele>102.9</ele>
        <time>2020-10-07T11:29:27.060Z</time>
      </trkpt>
      <trkpt lat="43.38551" lon="6.70692">
        <ele>103</ele>
        <time>2020-10-07T11:29:29.534Z</time>
      </trkpt>
      <trkpt lat="43.38557" lon="6.707">
        <ele>103.3</ele>
        <time>2020-10-07T11:29:33.296Z</time>
      </trkpt>
      <trkpt lat="43.3856" lon="6.70708">
        <ele>103.6</ele>
        <time>2020-10-07T11:29:36.662Z</time>
      </trkpt>
      <trkpt lat="43.38564" lon="6.70714">
        <ele>103.9</ele>
        <time>2020-10-07T11:29:39.804Z</time>
      </trkpt>
      <trkpt lat="43.3857" lon="6.70718">
        <ele>104.2</ele>
        <time>2020-10-07T11:29:43.215Z</time>
      </trkpt>
      <trkpt lat="43.38576" lon="6.70722">
        <ele>104.6</ele>
        <time>2020-10-07T11:29:46.986Z</time>
      </trkpt>
      <trkpt lat="43.38584" lon="6.70726">
        <ele>104.3</ele>
        <time>2020-10-07T11:29:48.185Z</time>
      </trkpt>
      <trkpt lat="43.38593" lon="6.70729">
        <ele>104.4</ele>
        <time>2020-10-07T11:29:51.291Z</time>
      </trkpt>
      <trkpt lat="43.38603" lon="6.70733">
        <ele>104.2</ele>
        <time>2020-10-07T11:29:53.038Z</time>
      </trkpt>
      <trkpt lat="43.38617" lon="6.70735">
        <ele>103.6</ele>
        <time>2020-10-07T11:29:54.887Z</time>
      </trkpt>
      <trkpt lat="43.38617" lon="6.70735">
        <ele>103.6</ele>
        <time>2020-10-07T11:29:54.887Z</time>
      </trkpt>
      <trkpt lat="43.38617" lon="6.70735">
        <ele>103.6</ele>
        <time>2020-10-07T11:29:54.887Z</time>
      </trkpt>
      <trkpt lat="43.38648" lon="6.70736">
        <ele>103.2</ele>
        <time>2020-10-07T11:30:00.508Z</time>
      </trkpt>
      <trkpt lat="43.38654" lon="6.70727">
        <ele>102.8</ele>
        <time>2020-10-07T11:30:01.648Z</time>
      </trkpt>
      <trkpt lat="43.3867" lon="6.70731">
        <ele>102</ele>
        <time>2020-10-07T11:30:03.661Z</time>
      </trkpt>
      <trkpt lat="43.38685" lon="6.70725">
        <ele>101</ele>
        <time>2020-10-07T11:30:05.374Z</time>
      </trkpt>
      <trkpt lat="43.38689" lon="6.70721">
        <ele>100.6</ele>
        <time>2020-10-07T11:30:05.953Z</time>
      </trkpt>
      <trkpt lat="43.38695" lon="6.70719">
        <ele>100.3</ele>
        <time>2020-10-07T11:30:06.722Z</time>
      </trkpt>
      <trkpt lat="43.38702" lon="6.70717">
        <ele>100.1</ele>
        <time>2020-10-07T11:30:07.808Z</time>
      </trkpt>
      <trkpt lat="43.38707" lon="6.70718">
        <ele>100.1</ele>
        <time>2020-10-07T11:30:09.335Z</time>
      </trkpt>
      <trkpt lat="43.38714" lon="6.70722">
        <ele>100.4</ele>
        <time>2020-10-07T11:30:12.929Z</time>
      </trkpt>
      <trkpt lat="43.3872" lon="6.70724">
        <ele>100.5</ele>
        <time>2020-10-07T11:30:15.120Z</time>
      </trkpt>
      <trkpt lat="43.38729" lon="6.7072">
        <ele>100.4</ele>
        <time>2020-10-07T11:30:16.887Z</time>
      </trkpt>
      <trkpt lat="43.38741" lon="6.70716">
        <ele>100.1</ele>
        <time>2020-10-07T11:30:18.840Z</time>
      </trkpt>
      <trkpt lat="43.38757" lon="6.70706">
        <ele>98.1</ele>
        <time>2020-10-07T11:30:20.900Z</time>
      </trkpt>
      <trkpt lat="43.38777" lon="6.70693">
        <ele>97.2</ele>
        <time>2020-10-07T11:30:23.859Z</time>
      </trkpt>
      <trkpt lat="43.38794" lon="6.70684">
        <ele>96.9</ele>
        <time>2020-10-07T11:30:27.016Z</time>
      </trkpt>
      <trkpt lat="43.38814" lon="6.70674">
        <ele>96.4</ele>
        <time>2020-10-07T11:30:30.413Z</time>
      </trkpt>
      <trkpt lat="43.38834" lon="6.70669">
        <ele>95</ele>
        <time>2020-10-07T11:30:32.797Z</time>
      </trkpt>
      <trkpt lat="43.38852" lon="6.70655">
        <ele>93.7</ele>
        <time>2020-10-07T11:30:35.083Z</time>
      </trkpt>
      <trkpt lat="43.3887" lon="6.70638">
        <ele>93.2</ele>
        <time>2020-10-07T11:30:38.592Z</time>
      </trkpt>
      <trkpt lat="43.38876" lon="6.70625">
        <ele>93</ele>
        <time>2020-10-07T11:30:40.499Z</time>
      </trkpt>
      <trkpt lat="43.3888" lon="6.70619">
        <ele>93</ele>
        <time>2020-10-07T11:30:42.288Z</time>
      </trkpt>
      <trkpt lat="43.38883" lon="6.70613">
        <ele>93.1</ele>
        <time>2020-10-07T11:30:44.222Z</time>
      </trkpt>
      <trkpt lat="43.38886" lon="6.70606">
        <ele>93.2</ele>
        <time>2020-10-07T11:30:46.334Z</time>
      </trkpt>
      <trkpt lat="43.38892" lon="6.70603">
        <ele>93.5</ele>
        <time>2020-10-07T11:30:49.643Z</time>
      </trkpt>
      <trkpt lat="43.38899" lon="6.70604">
        <ele>93.8</ele>
        <time>2020-10-07T11:30:53.132Z</time>
      </trkpt>
      <trkpt lat="43.38907" lon="6.70602">
        <ele>94.2</ele>
        <time>2020-10-07T11:30:57.407Z</time>
      </trkpt>
      <trkpt lat="43.38915" lon="6.70595">
        <ele>94.8</ele>
        <time>2020-10-07T11:31:02.895Z</time>
      </trkpt>
      <trkpt lat="43.38927" lon="6.70581">
        <ele>92.1</ele>
        <time>2020-10-07T11:31:04.739Z</time>
      </trkpt>
      <trkpt lat="43.38947" lon="6.70566">
        <ele>87.3</ele>
        <time>2020-10-07T11:31:07.410Z</time>
      </trkpt>
      <trkpt lat="43.38962" lon="6.70569">
        <ele>85.6</ele>
        <time>2020-10-07T11:31:09.187Z</time>
      </trkpt>
      <trkpt lat="43.38977" lon="6.70568">
        <ele>84.1</ele>
        <time>2020-10-07T11:31:10.947Z</time>
      </trkpt>
      <trkpt lat="43.38986" lon="6.7055">
        <ele>83.4</ele>
        <time>2020-10-07T11:31:13.005Z</time>
      </trkpt>
      <trkpt lat="43.38998" lon="6.70534">
        <ele>82.1</ele>
        <time>2020-10-07T11:31:14.964Z</time>
      </trkpt>
      <trkpt lat="43.39011" lon="6.70533">
        <ele>70.8</ele>
        <time>2020-10-07T11:31:16.490Z</time>
      </trkpt>
      <trkpt lat="43.39022" lon="6.70527">
        <ele>69.8</ele>
        <time>2020-10-07T11:31:17.878Z</time>
      </trkpt>
      <trkpt lat="43.39026" lon="6.70516">
        <ele>69.5</ele>
        <time>2020-10-07T11:31:19.159Z</time>
      </trkpt>
      <trkpt lat="43.39033" lon="6.70522">
        <ele>68.4</ele>
        <time>2020-10-07T11:31:20.126Z</time>
      </trkpt>
      <trkpt lat="43.39047" lon="6.7053">
        <ele>66.5</ele>
        <time>2020-10-07T11:31:21.903Z</time>
      </trkpt>
      <trkpt lat="43.39051" lon="6.70558">
        <ele>66.5</ele>
        <time>2020-10-07T11:31:28.171Z</time>
      </trkpt>
      <trkpt lat="43.39062" lon="6.70583">
        <ele>64</ele>
        <time>2020-10-07T11:31:30.660Z</time>
      </trkpt>
      <trkpt lat="43.39074" lon="6.70594">
        <ele>63.5</ele>
        <time>2020-10-07T11:31:32.705Z</time>
      </trkpt>
      <trkpt lat="43.39074" lon="6.70594">
        <ele>63.5</ele>
        <time>2020-10-07T11:31:32.705Z</time>
      </trkpt>
      <trkpt lat="43.39074" lon="6.70594">
        <ele>63.5</ele>
        <time>2020-10-07T11:31:32.705Z</time>
      </trkpt>
      <trkpt lat="43.39074" lon="6.70594">
        <ele>63.5</ele>
        <time>2020-10-07T11:31:32.705Z</time>
      </trkpt>
      <trkpt lat="43.39074" lon="6.70594">
        <ele>63.5</ele>
        <time>2020-10-07T11:31:32.705Z</time>
      </trkpt>
      <trkpt lat="43.39074" lon="6.70594">
        <ele>63.5</ele>
        <time>2020-10-07T11:31:32.705Z</time>
      </trkpt>
      <trkpt lat="43.39078" lon="6.70597">
        <ele>63.5</ele>
        <time>2020-10-07T11:31:34.082Z</time>
      </trkpt>
      <trkpt lat="43.3909" lon="6.70603">
        <ele>56.7</ele>
        <time>2020-10-07T11:31:35.578Z</time>
      </trkpt>
      <trkpt lat="43.39112" lon="6.70614">
        <ele>55.8</ele>
        <time>2020-10-07T11:31:38.776Z</time>
      </trkpt>
      <trkpt lat="43.39132" lon="6.70634">
        <ele>55</ele>
        <time>2020-10-07T11:31:42.365Z</time>
      </trkpt>
      <trkpt lat="43.39142" lon="6.70657">
        <ele>54.2</ele>
        <time>2020-10-07T11:31:44.960Z</time>
      </trkpt>
      <trkpt lat="43.39161" lon="6.70674">
        <ele>53.8</ele>
        <time>2020-10-07T11:31:48.833Z</time>
      </trkpt>
      <trkpt lat="43.39184" lon="6.70677">
        <ele>51.6</ele>
        <time>2020-10-07T11:31:51.542Z</time>
      </trkpt>
      <trkpt lat="43.39208" lon="6.70686">
        <ele>51.1</ele>
        <time>2020-10-07T11:31:55.671Z</time>
      </trkpt>
      <trkpt lat="43.39224" lon="6.70693">
        <ele>50.5</ele>
        <time>2020-10-07T11:31:58.026Z</time>
      </trkpt>
      <trkpt lat="43.39237" lon="6.707">
        <ele>50.4</ele>
        <time>2020-10-07T11:32:01.828Z</time>
      </trkpt>
      <trkpt lat="43.39252" lon="6.70701">
        <ele>46.3</ele>
        <time>2020-10-07T11:32:03.589Z</time>
      </trkpt>
      <trkpt lat="43.39261" lon="6.707">
        <ele>46.1</ele>
        <time>2020-10-07T11:32:05.052Z</time>
      </trkpt>
      <trkpt lat="43.39263" lon="6.7069">
        <ele>45.6</ele>
        <time>2020-10-07T11:32:05.864Z</time>
      </trkpt>
      <trkpt lat="43.39257" lon="6.70674">
        <ele>44.7</ele>
        <time>2020-10-07T11:32:07.398Z</time>
      </trkpt>
      <trkpt lat="43.39266" lon="6.70662">
        <ele>45.3</ele>
        <time>2020-10-07T11:32:13.929Z</time>
      </trkpt>
      <trkpt lat="43.39278" lon="6.70663">
        <ele>45.6</ele>
        <time>2020-10-07T11:32:18.639Z</time>
      </trkpt>
      <trkpt lat="43.39284" lon="6.7066">
        <ele>45.8</ele>
        <time>2020-10-07T11:32:21.345Z</time>
      </trkpt>
      <trkpt lat="43.39288" lon="6.70661">
        <ele>45.8</ele>
        <time>2020-10-07T11:32:22.574Z</time>
      </trkpt>
      <trkpt lat="43.39292" lon="6.70658">
        <ele>45.8</ele>
        <time>2020-10-07T11:32:23.951Z</time>
      </trkpt>
      <trkpt lat="43.39297" lon="6.70657">
        <ele>45.8</ele>
        <time>2020-10-07T11:32:25.478Z</time>
      </trkpt>
      <trkpt lat="43.39301" lon="6.70655">
        <ele>45.8</ele>
        <time>2020-10-07T11:32:26.764Z</time>
      </trkpt>
      <trkpt lat="43.39305" lon="6.70655">
        <ele>45.7</ele>
        <time>2020-10-07T11:32:27.392Z</time>
      </trkpt>
      <trkpt lat="43.39308" lon="6.70656">
        <ele>45.6</ele>
        <time>2020-10-07T11:32:27.840Z</time>
      </trkpt>
      <trkpt lat="43.39312" lon="6.70657">
        <ele>45.4</ele>
        <time>2020-10-07T11:32:28.343Z</time>
      </trkpt>
      <trkpt lat="43.39315" lon="6.70657">
        <ele>45.2</ele>
        <time>2020-10-07T11:32:28.665Z</time>
      </trkpt>
      <trkpt lat="43.39319" lon="6.70656">
        <ele>45.1</ele>
        <time>2020-10-07T11:32:29.306Z</time>
      </trkpt>
      <trkpt lat="43.39323" lon="6.70657">
        <ele>44.8</ele>
        <time>2020-10-07T11:32:29.783Z</time>
      </trkpt>
      <trkpt lat="43.39328" lon="6.70658">
        <ele>44.4</ele>
        <time>2020-10-07T11:32:30.375Z</time>
      </trkpt>
      <trkpt lat="43.39334" lon="6.70657">
        <ele>46.2</ele>
        <time>2020-10-07T11:32:37.421Z</time>
      </trkpt>
      <trkpt lat="43.39338" lon="6.70656">
        <ele>46.8</ele>
        <time>2020-10-07T11:32:42.160Z</time>
      </trkpt>
      <trkpt lat="43.39343" lon="6.70655">
        <ele>47.6</ele>
        <time>2020-10-07T11:32:48.050Z</time>
      </trkpt>
      <trkpt lat="43.39353" lon="6.70655">
        <ele>49.1</ele>
        <time>2020-10-07T11:32:59.708Z</time>
      </trkpt>
      <trkpt lat="43.39365" lon="6.70662">
        <ele>50.3</ele>
        <time>2020-10-07T11:33:09.217Z</time>
      </trkpt>
      <trkpt lat="43.39378" lon="6.70669">
        <ele>45.2</ele>
        <time>2020-10-07T11:33:10.853Z</time>
      </trkpt>
      <trkpt lat="43.39386" lon="6.70672">
        <ele>45.8</ele>
        <time>2020-10-07T11:33:15.988Z</time>
      </trkpt>
      <trkpt lat="43.39393" lon="6.70674">
        <ele>46.4</ele>
        <time>2020-10-07T11:33:20.845Z</time>
      </trkpt>
      <trkpt lat="43.39399" lon="6.70679">
        <ele>46.8</ele>
        <time>2020-10-07T11:33:24.731Z</time>
      </trkpt>
      <trkpt lat="43.39405" lon="6.70681">
        <ele>47.2</ele>
        <time>2020-10-07T11:33:28.344Z</time>
      </trkpt>
      <trkpt lat="43.3941" lon="6.70681">
        <ele>47.7</ele>
        <time>2020-10-07T11:33:32.274Z</time>
      </trkpt>
      <trkpt lat="43.39417" lon="6.7068">
        <ele>49.2</ele>
        <time>2020-10-07T11:33:40.478Z</time>
      </trkpt>
      <trkpt lat="43.39426" lon="6.7068">
        <ele>48.8</ele>
        <time>2020-10-07T11:33:41.640Z</time>
      </trkpt>
      <trkpt lat="43.39435" lon="6.70681">
        <ele>48.2</ele>
        <time>2020-10-07T11:33:42.611Z</time>
      </trkpt>
      <trkpt lat="43.39445" lon="6.70686">
        <ele>47.4</ele>
        <time>2020-10-07T11:33:43.859Z</time>
      </trkpt>
      <trkpt lat="43.39454" lon="6.70685">
        <ele>47.5</ele>
        <time>2020-10-07T11:33:46.896Z</time>
      </trkpt>
      <trkpt lat="43.39459" lon="6.70678">
        <ele>48.1</ele>
        <time>2020-10-07T11:33:51.751Z</time>
      </trkpt>
      <trkpt lat="43.39456" lon="6.70672">
        <ele>48.3</ele>
        <time>2020-10-07T11:33:54.197Z</time>
      </trkpt>
      <trkpt lat="43.39465" lon="6.70669">
        <ele>48.7</ele>
        <time>2020-10-07T11:33:58.828Z</time>
      </trkpt>
      <trkpt lat="43.39475" lon="6.70667">
        <ele>49.6</ele>
        <time>2020-10-07T11:34:06.005Z</time>
      </trkpt>
      <trkpt lat="43.39485" lon="6.70666">
        <ele>57.1</ele>
        <time>2020-10-07T11:34:17.693Z</time>
      </trkpt>
      <trkpt lat="43.39492" lon="6.70662">
        <ele>56.6</ele>
        <time>2020-10-07T11:34:18.512Z</time>
      </trkpt>
      <trkpt lat="43.39493" lon="6.70651">
        <ele>57.7</ele>
        <time>2020-10-07T11:34:27.902Z</time>
      </trkpt>
      <trkpt lat="43.39495" lon="6.70639">
        <ele>59</ele>
        <time>2020-10-07T11:34:38.331Z</time>
      </trkpt>
      <trkpt lat="43.39502" lon="6.70629">
        <ele>58.6</ele>
        <time>2020-10-07T11:34:39.694Z</time>
      </trkpt>
      <trkpt lat="43.39508" lon="6.70616">
        <ele>59.8</ele>
        <time>2020-10-07T11:34:49.156Z</time>
      </trkpt>
      <trkpt lat="43.39515" lon="6.70604">
        <ele>60.9</ele>
        <time>2020-10-07T11:34:57.807Z</time>
      </trkpt>
      <trkpt lat="43.39524" lon="6.70601">
        <ele>60.3</ele>
        <time>2020-10-07T11:34:58.816Z</time>
      </trkpt>
      <trkpt lat="43.39535" lon="6.70604">
        <ele>59.2</ele>
        <time>2020-10-07T11:35:00.131Z</time>
      </trkpt>
      <trkpt lat="43.39538" lon="6.7062">
        <ele>58.2</ele>
        <time>2020-10-07T11:35:01.538Z</time>
      </trkpt>
      <trkpt lat="43.39545" lon="6.70633">
        <ele>57.2</ele>
        <time>2020-10-07T11:35:02.917Z</time>
      </trkpt>
      <trkpt lat="43.39557" lon="6.70626">
        <ele>57.1</ele>
        <time>2020-10-07T11:35:05.449Z</time>
      </trkpt>
      <trkpt lat="43.39566" lon="6.70606">
        <ele>57.5</ele>
        <time>2020-10-07T11:35:12.025Z</time>
      </trkpt>
      <trkpt lat="43.39575" lon="6.706">
        <ele>57.4</ele>
        <time>2020-10-07T11:35:13.907Z</time>
      </trkpt>
      <trkpt lat="43.39583" lon="6.70605">
        <ele>57.2</ele>
        <time>2020-10-07T11:35:15.322Z</time>
      </trkpt>
      <trkpt lat="43.39591" lon="6.70617">
        <ele>57.6</ele>
        <time>2020-10-07T11:35:20.502Z</time>
      </trkpt>
      <trkpt lat="43.39596" lon="6.70633">
        <ele>57.1</ele>
        <time>2020-10-07T11:35:22.214Z</time>
      </trkpt>
      <trkpt lat="43.39599" lon="6.70645">
        <ele>56.5</ele>
        <time>2020-10-07T11:35:23.216Z</time>
      </trkpt>
      <trkpt lat="43.396" lon="6.7066">
        <ele>55.6</ele>
        <time>2020-10-07T11:35:24.499Z</time>
      </trkpt>
      <trkpt lat="43.39603" lon="6.70673">
        <ele>53.1</ele>
        <time>2020-10-07T11:35:25.661Z</time>
      </trkpt>
      <trkpt lat="43.39608" lon="6.70684">
        <ele>53.3</ele>
        <time>2020-10-07T11:35:29.198Z</time>
      </trkpt>
      <trkpt lat="43.39619" lon="6.70684">
        <ele>54</ele>
        <time>2020-10-07T11:35:35.581Z</time>
      </trkpt>
      <trkpt lat="43.39627" lon="6.70682">
        <ele>54.7</ele>
        <time>2020-10-07T11:35:41.209Z</time>
      </trkpt>
      <trkpt lat="43.39637" lon="6.70678">
        <ele>55.7</ele>
        <time>2020-10-07T11:35:49.089Z</time>
      </trkpt>
      <trkpt lat="43.39646" lon="6.70676">
        <ele>56.9</ele>
        <time>2020-10-07T11:35:59.446Z</time>
      </trkpt>
      <trkpt lat="43.39655" lon="6.70672">
        <ele>58.6</ele>
        <time>2020-10-07T11:36:10.471Z</time>
      </trkpt>
      <trkpt lat="43.39663" lon="6.70664">
        <ele>61.4</ele>
        <time>2020-10-07T11:36:21.999Z</time>
      </trkpt>
      <trkpt lat="43.39671" lon="6.70656">
        <ele>62.5</ele>
        <time>2020-10-07T11:36:30.727Z</time>
      </trkpt>
      <trkpt lat="43.39684" lon="6.7065">
        <ele>62.9</ele>
        <time>2020-10-07T11:36:36.382Z</time>
      </trkpt>
      <trkpt lat="43.39702" lon="6.70647">
        <ele>63.1</ele>
        <time>2020-10-07T11:36:42.478Z</time>
      </trkpt>
      <trkpt lat="43.39721" lon="6.70653">
        <ele>63</ele>
        <time>2020-10-07T11:36:47.940Z</time>
      </trkpt>
      <trkpt lat="43.39738" lon="6.70652">
        <ele>62.9</ele>
        <time>2020-10-07T11:36:52.658Z</time>
      </trkpt>
      <trkpt lat="43.39749" lon="6.70627">
        <ele>63.6</ele>
        <time>2020-10-07T11:37:01.852Z</time>
      </trkpt>
      <trkpt lat="43.39761" lon="6.70606">
        <ele>62.6</ele>
        <time>2020-10-07T11:37:04.208Z</time>
      </trkpt>
      <trkpt lat="43.39768" lon="6.70583">
        <ele>65.9</ele>
        <time>2020-10-07T11:37:25.330Z</time>
      </trkpt>
      <trkpt lat="43.39781" lon="6.7057">
        <ele>65.7</ele>
        <time>2020-10-07T11:37:28.260Z</time>
      </trkpt>
      <trkpt lat="43.39794" lon="6.70551">
        <ele>65.8</ele>
        <time>2020-10-07T11:37:34.282Z</time>
      </trkpt>
      <trkpt lat="43.39801" lon="6.70528">
        <ele>66.5</ele>
        <time>2020-10-07T11:37:42.757Z</time>
      </trkpt>
      <trkpt lat="43.39813" lon="6.70512">
        <ele>66.7</ele>
        <time>2020-10-07T11:37:48.428Z</time>
      </trkpt>
      <trkpt lat="43.39821" lon="6.70492">
        <ele>69.8</ele>
        <time>2020-10-07T11:38:07.766Z</time>
      </trkpt>
      <trkpt lat="43.39829" lon="6.70487">
        <ele>69.7</ele>
        <time>2020-10-07T11:38:09.391Z</time>
      </trkpt>
      <trkpt lat="43.39836" lon="6.70497">
        <ele>68</ele>
        <time>2020-10-07T11:38:10.574Z</time>
      </trkpt>
      <trkpt lat="43.39841" lon="6.70506">
        <ele>66.7</ele>
        <time>2020-10-07T11:38:11.539Z</time>
      </trkpt>
      <trkpt lat="43.3985" lon="6.70509">
        <ele>66.6</ele>
        <time>2020-10-07T11:38:13.264Z</time>
      </trkpt>
      <trkpt lat="43.39855" lon="6.70521">
        <ele>66.4</ele>
        <time>2020-10-07T11:38:14.936Z</time>
      </trkpt>
      <trkpt lat="43.39861" lon="6.70539">
        <ele>65.7</ele>
        <time>2020-10-07T11:38:16.726Z</time>
      </trkpt>
      <trkpt lat="43.39872" lon="6.70559">
        <ele>65.1</ele>
        <time>2020-10-07T11:38:19.356Z</time>
      </trkpt>
      <trkpt lat="43.39888" lon="6.70579">
        <ele>64.9</ele>
        <time>2020-10-07T11:38:23.466Z</time>
      </trkpt>
      <trkpt lat="43.39906" lon="6.70588">
        <ele>61.6</ele>
        <time>2020-10-07T11:38:25.712Z</time>
      </trkpt>
      <trkpt lat="43.39922" lon="6.70587">
        <ele>62.3</ele>
        <time>2020-10-07T11:38:33.784Z</time>
      </trkpt>
      <trkpt lat="43.39935" lon="6.70575">
        <ele>64.8</ele>
        <time>2020-10-07T11:38:52.031Z</time>
      </trkpt>
      <trkpt lat="43.39946" lon="6.70564">
        <ele>65.1</ele>
        <time>2020-10-07T11:38:57.182Z</time>
      </trkpt>
      <trkpt lat="43.39957" lon="6.70557">
        <ele>65</ele>
        <time>2020-10-07T11:38:59.518Z</time>
      </trkpt>
      <trkpt lat="43.39969" lon="6.70552">
        <ele>64.8</ele>
        <time>2020-10-07T11:39:01.705Z</time>
      </trkpt>
      <trkpt lat="43.39981" lon="6.7054">
        <ele>65.2</ele>
        <time>2020-10-07T11:39:07.659Z</time>
      </trkpt>
      <trkpt lat="43.39983" lon="6.70518">
        <ele>66.2</ele>
        <time>2020-10-07T11:39:16.903Z</time>
      </trkpt>
      <trkpt lat="43.39985" lon="6.70494">
        <ele>70.4</ele>
        <time>2020-10-07T11:39:37.365Z</time>
      </trkpt>
      <trkpt lat="43.39992" lon="6.70475">
        <ele>71.8</ele>
        <time>2020-10-07T11:39:48.494Z</time>
      </trkpt>
      <trkpt lat="43.4" lon="6.70457">
        <ele>73.3</ele>
        <time>2020-10-07T11:40:00.295Z</time>
      </trkpt>
      <trkpt lat="43.40005" lon="6.70435">
        <ele>71.3</ele>
        <time>2020-10-07T11:40:02.259Z</time>
      </trkpt>
      <trkpt lat="43.40015" lon="6.70436">
        <ele>70.4</ele>
        <time>2020-10-07T11:40:03.434Z</time>
      </trkpt>
      <trkpt lat="43.40032" lon="6.70429">
        <ele>69.2</ele>
        <time>2020-10-07T11:40:05.515Z</time>
      </trkpt>
      <trkpt lat="43.4005" lon="6.70423">
        <ele>67.7</ele>
        <time>2020-10-07T11:40:07.686Z</time>
      </trkpt>
      <trkpt lat="43.4006" lon="6.70419">
        <ele>66.9</ele>
        <time>2020-10-07T11:40:08.907Z</time>
      </trkpt>
      <trkpt lat="43.40071" lon="6.7042">
        <ele>66.1</ele>
        <time>2020-10-07T11:40:10.199Z</time>
      </trkpt>
      <trkpt lat="43.40081" lon="6.70431">
        <ele>65.9</ele>
        <time>2020-10-07T11:40:12.442Z</time>
      </trkpt>
      <trkpt lat="43.40087" lon="6.70432">
        <ele>63.1</ele>
        <time>2020-10-07T11:40:13.150Z</time>
      </trkpt>
      <trkpt lat="43.40095" lon="6.70428">
        <ele>63</ele>
        <time>2020-10-07T11:40:14.716Z</time>
      </trkpt>
      <trkpt lat="43.40094" lon="6.70405">
        <ele>63.7</ele>
        <time>2020-10-07T11:40:22.917Z</time>
      </trkpt>
      <trkpt lat="43.40098" lon="6.70382">
        <ele>63.6</ele>
        <time>2020-10-07T11:40:27.685Z</time>
      </trkpt>
      <trkpt lat="43.40109" lon="6.70356">
        <ele>64.1</ele>
        <time>2020-10-07T11:40:36.043Z</time>
      </trkpt>
      <trkpt lat="43.40117" lon="6.70339">
        <ele>63.6</ele>
        <time>2020-10-07T11:40:38.144Z</time>
      </trkpt>
      <trkpt lat="43.40108" lon="6.70322">
        <ele>67.3</ele>
        <time>2020-10-07T11:40:55.960Z</time>
      </trkpt>
      <trkpt lat="43.40104" lon="6.70306">
        <ele>67.6</ele>
        <time>2020-10-07T11:41:00.745Z</time>
      </trkpt>
      <trkpt lat="43.40105" lon="6.70295">
        <ele>67.6</ele>
        <time>2020-10-07T11:41:03.179Z</time>
      </trkpt>
      <trkpt lat="43.40105" lon="6.70284">
        <ele>68.1</ele>
        <time>2020-10-07T11:41:07.782Z</time>
      </trkpt>
      <trkpt lat="43.40111" lon="6.70273">
        <ele>68</ele>
        <time>2020-10-07T11:41:09.663Z</time>
      </trkpt>
      <trkpt lat="43.40115" lon="6.70262">
        <ele>67.9</ele>
        <time>2020-10-07T11:41:11.319Z</time>
      </trkpt>
      <trkpt lat="43.40117" lon="6.70238">
        <ele>69.2</ele>
        <time>2020-10-07T11:41:22.331Z</time>
      </trkpt>
      <trkpt lat="43.40121" lon="6.70218">
        <ele>68.3</ele>
        <time>2020-10-07T11:41:24.040Z</time>
      </trkpt>
      <trkpt lat="43.40124" lon="6.70201">
        <ele>67.9</ele>
        <time>2020-10-07T11:41:25.902Z</time>
      </trkpt>
      <trkpt lat="43.40125" lon="6.70185">
        <ele>67.8</ele>
        <time>2020-10-07T11:41:28.141Z</time>
      </trkpt>
      <trkpt lat="43.40124" lon="6.70161">
        <ele>67.3</ele>
        <time>2020-10-07T11:41:30.777Z</time>
      </trkpt>
      <trkpt lat="43.40123" lon="6.70137">
        <ele>67.1</ele>
        <time>2020-10-07T11:41:34.003Z</time>
      </trkpt>
      <trkpt lat="43.40128" lon="6.70117">
        <ele>66.5</ele>
        <time>2020-10-07T11:41:36.091Z</time>
      </trkpt>
      <trkpt lat="43.4013" lon="6.70097">
        <ele>66.1</ele>
        <time>2020-10-07T11:41:38.337Z</time>
      </trkpt>
      <trkpt lat="43.40132" lon="6.70073">
        <ele>64.3</ele>
        <time>2020-10-07T11:41:40.395Z</time>
      </trkpt>
      <trkpt lat="43.40136" lon="6.7005">
        <ele>64</ele>
        <time>2020-10-07T11:41:43.338Z</time>
      </trkpt>
      <trkpt lat="43.40142" lon="6.70025">
        <ele>63.8</ele>
        <time>2020-10-07T11:41:46.918Z</time>
      </trkpt>
      <trkpt lat="43.4015" lon="6.70014">
        <ele>63.8</ele>
        <time>2020-10-07T11:41:50.335Z</time>
      </trkpt>
      <trkpt lat="43.40166" lon="6.69994">
        <ele>63.3</ele>
        <time>2020-10-07T11:41:53.800Z</time>
      </trkpt>
      <trkpt lat="43.40181" lon="6.69979">
        <ele>66.9</ele>
        <time>2020-10-07T11:42:15.414Z</time>
      </trkpt>
      <trkpt lat="43.40201" lon="6.69956">
        <ele>68.4</ele>
        <time>2020-10-07T11:42:29.904Z</time>
      </trkpt>
      <trkpt lat="43.40217" lon="6.69946">
        <ele>69.7</ele>
        <time>2020-10-07T11:42:40.922Z</time>
      </trkpt>
      <trkpt lat="43.4023" lon="6.69941">
        <ele>70.9</ele>
        <time>2020-10-07T11:42:50.495Z</time>
      </trkpt>
      <trkpt lat="43.40237" lon="6.69947">
        <ele>71.3</ele>
        <time>2020-10-07T11:42:54.811Z</time>
      </trkpt>
      <trkpt lat="43.40252" lon="6.69956">
        <ele>76.3</ele>
        <time>2020-10-07T11:43:13.887Z</time>
      </trkpt>
      <trkpt lat="43.40278" lon="6.69987">
        <ele>76.6</ele>
        <time>2020-10-07T11:43:25.186Z</time>
      </trkpt>
      <trkpt lat="43.40313" lon="6.70027">
        <ele>76.7</ele>
        <time>2020-10-07T11:43:39.217Z</time>
      </trkpt>
      <trkpt lat="43.40337" lon="6.69971">
        <ele>74.9</ele>
        <time>2020-10-07T11:43:45.693Z</time>
      </trkpt>
      <trkpt lat="43.40351" lon="6.69872">
        <ele>63.8</ele>
        <time>2020-10-07T11:43:54.284Z</time>
      </trkpt>
      <trkpt lat="43.40374" lon="6.6978">
        <ele>50.1</ele>
        <time>2020-10-07T11:44:02.571Z</time>
      </trkpt>
      <trkpt lat="43.40379" lon="6.69683">
        <ele>40.6</ele>
        <time>2020-10-07T11:44:10.854Z</time>
      </trkpt>
      <trkpt lat="43.40405" lon="6.69643">
        <ele>34.6</ele>
        <time>2020-10-07T11:44:15.426Z</time>
      </trkpt>
      <trkpt lat="43.40427" lon="6.6955">
        <ele>22.3</ele>
        <time>2020-10-07T11:44:23.757Z</time>
      </trkpt>
      <trkpt lat="43.40461" lon="6.69466">
        <ele>13.5</ele>
        <time>2020-10-07T11:44:31.947Z</time>
      </trkpt>
      <trkpt lat="43.40549" lon="6.69491">
        <ele>10.6</ele>
        <time>2020-10-07T11:44:45.001Z</time>
      </trkpt>
      <trkpt lat="43.40592" lon="6.69504">
        <ele>10.2</ele>
        <time>2020-10-07T11:44:53.391Z</time>
      </trkpt>
      <trkpt lat="43.40652" lon="6.69522">
        <ele>9.4</ele>
        <time>2020-10-07T11:45:04.505Z</time>
      </trkpt>
      <trkpt lat="43.40714" lon="6.69544">
        <ele>8</ele>
        <time>2020-10-07T11:45:14.917Z</time>
      </trkpt>
      <trkpt lat="43.40937" lon="6.69615">
        <ele>7.3</ele>
        <time>2020-10-07T11:46:20.998Z</time>
      </trkpt>
      <trkpt lat="43.41207" lon="6.69698">
        <ele>8.5</ele>
        <time>2020-10-07T11:47:48.070Z</time>
      </trkpt>
      <trkpt lat="43.41211" lon="6.6959">
        <ele>4.8</ele>
        <time>2020-10-07T11:47:57.976Z</time>
      </trkpt>
      <trkpt lat="43.41216" lon="6.69483">
        <ele>5</ele>
        <time>2020-10-07T11:48:22.083Z</time>
      </trkpt>
      <trkpt lat="43.41225" lon="6.69357">
        <ele>7.2</ele>
        <time>2020-10-07T11:48:57.679Z</time>
      </trkpt>
      <trkpt lat="43.4123" lon="6.69289">
        <ele>6.9</ele>
        <time>2020-10-07T11:49:11.413Z</time>
      </trkpt>
      <trkpt lat="43.41138" lon="6.69225">
        <ele>6.6</ele>
        <time>2020-10-07T11:49:41.237Z</time>
      </trkpt>
      <trkpt lat="43.41089" lon="6.69188">
        <ele>5.8</ele>
        <time>2020-10-07T11:49:51.189Z</time>
      </trkpt>
      <trkpt lat="43.41044" lon="6.69151">
        <ele>5.9</ele>
        <time>2020-10-07T11:50:07.312Z</time>
      </trkpt>
      <trkpt lat="43.41002" lon="6.69104">
        <ele>6</ele>
        <time>2020-10-07T11:50:23.953Z</time>
      </trkpt>
      <trkpt lat="43.40985" lon="6.69043">
        <ele>7.3</ele>
        <time>2020-10-07T11:50:43.102Z</time>
      </trkpt>
      <trkpt lat="43.40952" lon="6.69003">
        <ele>7.7</ele>
        <time>2020-10-07T11:50:57.599Z</time>
      </trkpt>
      <trkpt lat="43.409" lon="6.68991">
        <ele>7.8</ele>
        <time>2020-10-07T11:51:13.816Z</time>
      </trkpt>
      <trkpt lat="43.40831" lon="6.6894">
        <ele>7.3</ele>
        <time>2020-10-07T11:51:35.377Z</time>
      </trkpt>
      <trkpt lat="43.40763" lon="6.68878">
        <ele>7.2</ele>
        <time>2020-10-07T11:51:59.574Z</time>
      </trkpt>
      <trkpt lat="43.40673" lon="6.68849">
        <ele>8.2</ele>
        <time>2020-10-07T11:52:30.582Z</time>
      </trkpt>
      <trkpt lat="43.40618" lon="6.68811">
        <ele>9</ele>
        <time>2020-10-07T11:52:51.696Z</time>
      </trkpt>
      <trkpt lat="43.40572" lon="6.68767">
        <ele>8.8</ele>
        <time>2020-10-07T11:53:07.747Z</time>
      </trkpt>
      <trkpt lat="43.40655" lon="6.68582">
        <ele>8.2</ele>
        <time>2020-10-07T11:53:52.864Z</time>
      </trkpt>
      <trkpt lat="43.40552" lon="6.68529">
        <ele>7.6</ele>
        <time>2020-10-07T11:54:23.534Z</time>
      </trkpt>
      <trkpt lat="43.40484" lon="6.68485">
        <ele>9.3</ele>
        <time>2020-10-07T11:54:52.179Z</time>
      </trkpt>
      <trkpt lat="43.40445" lon="6.68426">
        <ele>10.1</ele>
        <time>2020-10-07T11:55:12.229Z</time>
      </trkpt>
      <trkpt lat="43.40403" lon="6.68274">
        <ele>13.9</ele>
        <time>2020-10-07T11:56:02.851Z</time>
      </trkpt>
      <trkpt lat="43.40381" lon="6.68182">
        <ele>15.2</ele>
        <time>2020-10-07T11:56:28.450Z</time>
      </trkpt>
      <trkpt lat="43.40358" lon="6.68115">
        <ele>14.1</ele>
        <time>2020-10-07T11:56:37.352Z</time>
      </trkpt>
      <trkpt lat="43.40321" lon="6.68054">
        <ele>11.8</ele>
        <time>2020-10-07T11:56:45.136Z</time>
      </trkpt>
      <trkpt lat="43.4025" lon="6.67984">
        <ele>13.2</ele>
        <time>2020-10-07T11:57:16.074Z</time>
      </trkpt>
      <trkpt lat="43.40131" lon="6.67861">
        <ele>13</ele>
        <time>2020-10-07T11:58:00.144Z</time>
      </trkpt>
      <trkpt lat="43.4" lon="6.67723">
        <ele>13.9</ele>
        <time>2020-10-07T11:58:52.625Z</time>
      </trkpt>
      <trkpt lat="43.39856" lon="6.67594">
        <ele>14.7</ele>
        <time>2020-10-07T11:59:46.867Z</time>
      </trkpt>
    </trkseg>
  </trk>
</gpx>